M I D A S
Marine Information and Data Acquisition System
Tripno 2297 of the Zeeleeuw from 2012-04-26 08:26:08 to 2012-04-26 14:07:33
Back to CruiseResearch ActivitiesStationsMapUnderway DataData graphs

EquipmentUnitsComment
TimeDGPSUTC
LatitudeDGPSDM.mWGS84
LongitudeDGPSDM.mWGS84
TemperatureSBE03/SBE38deg celciusITS90
ConductivitySBE21S/mITS90
SalinitySBE21 Practical Salinity Units
ChlorophylAChelsea fluorimeterg/lCalibrated in Aceton
Missing or incorrect values are displayed as -999
Sea surface data collected by the RV Zeeleeuw from 2012-04-26 07:44:46 to 2012-04-26 14:19:11
                                                                                    Next 1000 lines
Time Latitude Longitude Temperature Conductivity Salinity ChlorophylA
2012-04-26 07:44:56 51°13.642 2°56.017 17.0973 0.947426 6.314532 -2.458615
2012-04-26 07:45:00 51°13.642 2°56.017 17.0986 0.946808 6.310099 -2.458615
2012-04-26 07:45:06 51°13.642 2°56.017 17.1002 0.946293 6.306406 -2.458615
2012-04-26 07:45:11 51°13.642 2°56.017 17.1019 0.946705 6.309361 -2.458615
2012-04-26 07:45:16 51°13.642 2°56.017 17.102 0.946705 6.309361 -2.458615
2012-04-26 07:45:21 51°13.641 2°56.017 17.1038 0.945572 6.301236 -2.458615
2012-04-26 07:45:27 51°13.641 2°56.017 17.1053 0.946808 6.310099 -2.458615
2012-04-26 07:45:32 51°13.64 2°56.017 17.1067 0.946808 6.310099 -2.458615
2012-04-26 07:45:37 51°13.64 2°56.017 17.1087 0.946705 6.309361 -2.458615
2012-04-26 07:45:41 51°13.64 2°56.017 17.1088 0.946396 6.307145 -2.458615
2012-04-26 07:45:46 51°13.64 2°56.017 17.1091 0.946396 6.307145 -2.458615
2012-04-26 07:45:52 51°13.639 2°56.017 17.1084 0.946293 6.306406 -2.458615
2012-04-26 07:45:57 51°13.639 2°56.017 17.1089 0.946602 6.308622 -2.458615
2012-04-26 07:46:01 51°13.64 2°56.017 17.1109 0.946808 6.310099 -2.458615
2012-04-26 07:46:06 51°13.64 2°56.017 17.1114 0.946911 6.310838 -2.458615
2012-04-26 07:46:12 51°13.64 2°56.017 17.1125 0.946396 6.307021 -2.458615
2012-04-26 07:46:16 51°13.64 2°56.017 17.1129 0.946396 6.307021 -2.458615
2012-04-26 07:46:22 51°13.64 2°56.017 17.1149 0.947838 6.317363 -2.458615
2012-04-26 07:46:26 51°13.64 2°56.017 17.1159 0.948147 6.319703 -2.458615
2012-04-26 07:46:31 51°13.64 2°56.017 17.1165 0.946911 6.310838 -2.458615
2012-04-26 07:46:36 51°13.64 2°56.017 17.1175 0.947117 6.312192 -2.458615
2012-04-26 07:46:41 51°13.639 2°56.017 17.1176 0.947941 6.318102 -2.458615
2012-04-26 07:46:46 51°13.639 2°56.017 17.1176 0.947941 6.318102 -2.458615
2012-04-26 07:46:51 51°13.638 2°56.017 17.1182 0.947117 6.312192 -2.458615
2012-04-26 07:46:56 51°13.638 2°56.017 17.1199 0.947838 6.317363 -2.458615
2012-04-26 07:47:02 51°13.639 2°56.017 17.1205 0.948146 6.319579 -2.458615
2012-04-26 07:47:07 51°13.638 2°56.017 17.122 0.948455 6.321796 -2.458615
2012-04-26 07:47:11 51°13.638 2°56.017 17.1218 0.948352 6.321057 -2.458615
2012-04-26 07:47:17 51°13.639 2°56.017 17.1212 0.948352 6.321057 -2.458615
2012-04-26 07:47:22 51°13.639 2°56.017 17.1211 0.945366 6.299635 -2.458615
2012-04-26 07:47:27 51°13.638 2°56.017 17.1224 0.947529 6.315023 -2.458615
2012-04-26 07:47:32 51°13.638 2°56.017 17.1215 0.947632 6.315762 -2.458615
2012-04-26 07:47:36 51°13.638 2°56.017 17.1223 0.946808 6.309852 -2.458615
2012-04-26 07:47:42 51°13.638 2°56.017 17.1238 0.947014 6.31133 -2.458615
2012-04-26 07:47:47 51°13.638 2°56.017 17.1246 0.947014 6.31133 -2.458615
2012-04-26 07:47:52 51°13.638 2°56.017 17.1267 0.94722 6.312807 -2.458615
2012-04-26 07:47:56 51°13.637 2°56.017 17.1265 0.946499 6.307636 -2.458615
2012-04-26 07:48:01 51°13.637 2°56.017 17.1269 0.94619 6.305421 -2.458615
2012-04-26 07:48:07 51°13.638 2°56.017 17.1293 0.94722 6.312807 -2.458615
2012-04-26 07:48:12 51°13.638 2°56.017 17.1305 0.947323 6.313546 -2.458615
2012-04-26 07:48:16 51°13.638 2°56.017 17.1308 0.947323 6.313546 -2.458615
2012-04-26 07:48:21 51°13.638 2°56.017 17.1317 0.947117 6.311945 -2.458615
2012-04-26 07:48:27 51°13.638 2°56.017 17.1315 0.946808 6.309729 -2.458615
2012-04-26 07:48:32 51°13.638 2°56.017 17.131 0.947426 6.314284 -2.458615
2012-04-26 07:48:36 51°13.638 2°56.018 17.1328 0.946293 6.306036 -2.458615
2012-04-26 07:48:42 51°13.638 2°56.018 17.134 0.947838 6.317116 -2.458615
2012-04-26 07:48:47 51°13.638 2°56.017 17.1351 0.947838 6.317116 -2.458615
2012-04-26 07:48:52 51°13.638 2°56.018 17.1341 0.947838 6.317116 -2.458615
2012-04-26 07:48:56 51°13.638 2°56.018 17.1344 0.944748 6.294958 -2.458615
2012-04-26 07:49:02 51°13.638 2°56.018 17.1356 0.946808 6.309729 -2.458615
2012-04-26 07:49:07 51°13.638 2°56.018 17.1349 0.947426 6.314161 -2.458615
2012-04-26 07:49:11 51°13.638 2°56.018 17.1345 0.948455 6.321548 -2.458615
2012-04-26 07:49:16 51°13.638 2°56.018 17.1342 0.948455 6.321548 -2.458615
2012-04-26 07:49:22 51°13.638 2°56.018 17.1346 0.947117 6.311945 -2.458615
2012-04-26 07:49:26 51°13.638 2°56.018 17.1358 0.948249 6.320071 -2.458615
2012-04-26 07:49:31 51°13.638 2°56.018 17.1342 0.945881 6.302958 -2.458615
2012-04-26 07:49:36 51°13.638 2°56.018 17.1352 0.947735 6.316377 -2.458615
2012-04-26 07:49:42 51°13.638 2°56.018 17.136 0.947941 6.317731 -2.458615
2012-04-26 07:49:46 51°13.638 2°56.018 17.1362 0.947941 6.317731 -2.458615
2012-04-26 07:49:51 51°13.638 2°56.018 17.1335 0.944542 6.293357 -2.458615
2012-04-26 07:49:56 51°13.637 2°56.018 17.1136 0.945469 6.299881 -2.458615
2012-04-26 07:50:01 51°13.638 2°56.018 17.1089 0.948558 6.322039 -2.458615
2012-04-26 07:50:07 51°13.638 2°56.018 17.1002 0.949588 6.329427 -2.458615
2012-04-26 07:50:12 51°13.638 2°56.018 17.0884 0.952781 6.352458 -2.458615
2012-04-26 07:50:16 51°13.638 2°56.018 17.0982 0.952781 6.352458 -2.458615
2012-04-26 07:50:22 51°13.638 2°56.018 17.1034 0.953502 6.357632 -2.458615
2012-04-26 07:50:26 51°13.638 2°56.018 17.1093 0.952884 6.353197 -2.458615
2012-04-26 07:50:31 51°13.638 2°56.018 17.1178 0.953605 6.358496 -2.458615
2012-04-26 07:50:36 51°13.638 2°56.018 17.122 0.954017 6.361452 -2.458615
2012-04-26 07:50:42 51°13.638 2°56.018 17.1295 0.953811 6.359849 -2.458615
2012-04-26 07:50:46 51°13.638 2°56.018 17.1316 0.953811 6.359849 -2.458615
2012-04-26 07:50:51 51°13.637 2°56.018 17.1269 0.95309 6.354676 -2.458615
2012-04-26 07:50:57 51°13.637 2°56.018 17.1279 0.953914 6.360589 -2.458615
2012-04-26 07:51:01 51°13.637 2°56.018 17.1273 0.954326 6.363545 -2.458615
2012-04-26 07:51:06 51°13.637 2°56.018 17.1307 0.953502 6.357508 -2.458615
2012-04-26 07:51:11 51°13.637 2°56.018 17.1326 0.953193 6.355415 -2.458615
2012-04-26 07:51:16 51°13.637 2°56.018 17.1347 0.953193 6.355415 -2.458615
2012-04-26 07:51:21 51°13.637 2°56.018 17.1347 0.953914 6.360464 -2.458615
2012-04-26 07:51:26 51°13.638 2°56.018 17.1364 0.954326 6.363421 -2.458615
2012-04-26 07:51:31 51°13.638 2°56.018 17.1383 0.951751 6.344944 -2.458615
2012-04-26 07:51:36 51°13.638 2°56.018 17.1389 0.953605 6.358247 -2.458615
2012-04-26 07:51:41 51°13.638 2°56.018 17.1361 0.952781 6.352334 -2.458615
2012-04-26 07:51:46 51°13.638 2°56.018 17.1348 0.952781 6.352334 -2.458615
2012-04-26 07:51:51 51°13.638 2°56.018 17.1367 0.955047 6.368595 -2.458615
2012-04-26 07:51:56 51°13.638 2°56.018 17.1377 0.952575 6.350856 -2.458615
2012-04-26 07:52:01 51°13.638 2°56.018 17.138 0.953811 6.3596 -2.458615
2012-04-26 07:52:06 51°13.638 2°56.018 17.1299 0.951545 6.343342 -2.458615
2012-04-26 07:52:11 51°13.638 2°56.018 17.119 0.950824 6.338169 -2.458615
2012-04-26 07:52:16 51°13.638 2°56.018 17.1172 0.950824 6.338169 -2.458615
2012-04-26 07:52:22 51°13.638 2°56.018 17.1377 0.951545 6.343342 -2.458615
2012-04-26 07:52:26 51°13.638 2°56.018 17.1515 0.953193 6.355166 -2.458615
2012-04-26 07:52:31 51°13.638 2°56.018 17.1472 0.957313 6.384734 -2.458615
2012-04-26 07:52:36 51°13.638 2°56.018 17.1402 0.955871 6.374384 -2.458615
2012-04-26 07:52:41 51°13.637 2°56.018 17.152 0.955974 6.375123 -2.458615
2012-04-26 07:52:46 51°13.637 2°56.018 17.1513 0.955974 6.375123 -2.458615
2012-04-26 07:52:51 51°13.638 2°56.019 17.1499 0.957416 6.385599 -2.458615
2012-04-26 07:52:56 51°13.637 2°56.018 17.149 0.957725 6.387692 -2.458615
2012-04-26 07:53:01 51°13.637 2°56.018 17.1494 0.956489 6.37882 -2.458615
2012-04-26 07:53:06 51°13.637 2°56.018 17.1506 0.95515 6.369209 -2.458615
2012-04-26 07:53:11 51°13.637 2°56.019 17.1527 0.95515 6.369209 -2.458615
2012-04-26 07:53:16 51°13.637 2°56.018 17.155 0.95515 6.369209 -2.458615
2012-04-26 07:53:21 51°13.637 2°56.018 17.1567 0.956592 6.379434 -2.458615
2012-04-26 07:53:26 51°13.637 2°56.019 17.1621 0.955253 6.369949 -2.458615
2012-04-26 07:53:31 51°13.637 2°56.019 17.1631 0.95721 6.38387 -2.458615
2012-04-26 07:53:36 51°13.638 2°56.019 17.1582 0.958137 6.39065 -2.458615
2012-04-26 07:53:41 51°13.639 2°56.019 17.1542 0.953193 6.355042 -2.458615
2012-04-26 07:53:47 51°13.639 2°56.019 17.1521 0.953193 6.355042 -2.458615
2012-04-26 07:53:52 51°13.639 2°56.02 17.1552 0.956386 6.377956 -2.458615
2012-04-26 07:53:56 51°13.639 2°56.02 17.1553 0.956283 6.377216 -2.458615
2012-04-26 07:54:01 51°13.638 2°56.02 17.1557 0.953914 6.360215 -2.458615
2012-04-26 07:54:06 51°13.638 2°56.019 17.1584 0.955871 6.374259 -2.458615
2012-04-26 07:54:12 51°13.638 2°56.02 17.1628 0.954841 6.366867 -2.458615
2012-04-26 07:54:17 51°13.639 2°56.02 17.1658 0.954841 6.366867 -2.458615
2012-04-26 07:54:22 51°13.639 2°56.02 17.167 0.956695 6.380174 -2.458615
2012-04-26 07:54:27 51°13.639 2°56.02 17.1671 0.955356 6.370563 -2.458615
2012-04-26 07:54:32 51°13.639 2°56.02 17.1693 0.954326 6.363172 -2.458615
2012-04-26 07:54:37 51°13.639 2°56.019 17.171 0.954841 6.366867 -2.458615
2012-04-26 07:54:41 51°13.638 2°56.019 17.1708 0.955356 6.370563 -2.458615
2012-04-26 07:54:46 51°13.637 2°56.019 17.1715 0.955356 6.370563 -2.458615
2012-04-26 07:54:51 51°13.638 2°56.019 17.1723 0.954841 6.366743 -2.458615
2012-04-26 07:54:57 51°13.637 2°56.019 17.1732 0.955665 6.372656 -2.458615
2012-04-26 07:55:02 51°13.637 2°56.019 17.1729 0.954738 6.366003 -2.458615
2012-04-26 07:55:07 51°13.637 2°56.019 17.1715 0.955253 6.369699 -2.458615
2012-04-26 07:55:12 51°13.637 2°56.019 17.1702 0.957416 6.385224 -2.458615
2012-04-26 07:55:17 51°13.637 2°56.019 17.1694 0.957416 6.385224 -2.458615
2012-04-26 07:55:21 51°13.637 2°56.019 17.1703 0.954326 6.363047 -2.458615
2012-04-26 07:55:26 51°13.637 2°56.019 17.1716 0.954738 6.366003 -2.458615
2012-04-26 07:55:31 51°13.637 2°56.019 17.1721 0.954841 6.366743 -2.458615
2012-04-26 07:55:37 51°13.636 2°56.019 17.173 0.953708 6.358612 -2.458615
2012-04-26 07:55:42 51°13.636 2°56.019 17.1729 0.955665 6.372656 -2.458615
2012-04-26 07:55:47 51°13.636 2°56.018 17.173 0.955665 6.372656 -2.458615
2012-04-26 07:55:52 51°13.636 2°56.018 17.175 0.954223 6.362183 -2.458615
2012-04-26 07:55:57 51°13.636 2°56.018 17.1759 0.955356 6.370439 -2.458615
2012-04-26 07:56:02 51°13.636 2°56.018 17.1778 0.954738 6.366003 -2.458615
2012-04-26 07:56:06 51°13.636 2°56.018 17.1784 0.954841 6.366743 -2.458615
2012-04-26 07:56:12 51°13.636 2°56.018 17.1789 0.954429 6.363786 -2.458615
2012-04-26 07:56:16 51°13.636 2°56.019 17.1801 0.954429 6.363786 -2.458615
2012-04-26 07:56:21 51°13.636 2°56.019 17.1817 0.953605 6.357749 -2.458615
2012-04-26 07:56:26 51°13.636 2°56.018 17.1825 0.954532 6.364401 -2.458615
2012-04-26 07:56:31 51°13.635 2°56.018 17.1824 0.955974 6.374749 -2.458615
2012-04-26 07:56:36 51°13.635 2°56.018 17.1813 0.956798 6.380663 -2.458615
2012-04-26 07:56:42 51°13.635 2°56.018 17.1799 0.957107 6.382881 -2.458615
2012-04-26 07:56:47 51°13.636 2°56.018 17.1773 0.957107 6.382881 -2.458615
2012-04-26 07:56:52 51°13.636 2°56.019 17.1725 0.953914 6.359966 -2.458615
2012-04-26 07:56:57 51°13.636 2°56.019 17.1707 0.955356 6.370314 -2.458615
2012-04-26 07:57:02 51°13.637 2°56.019 17.1745 0.958446 6.392493 -2.458615
2012-04-26 07:57:07 51°13.637 2°56.019 17.1791 0.956798 6.380663 -2.458615
2012-04-26 07:57:12 51°13.637 2°56.019 17.1826 0.955871 6.37401 -2.458615
2012-04-26 07:57:16 51°13.637 2°56.019 17.1842 0.955871 6.37401 -2.458615
2012-04-26 07:57:21 51°13.637 2°56.019 17.1846 0.95618 6.376103 -2.458615
2012-04-26 07:57:26 51°13.637 2°56.019 17.1851 0.956592 6.379184 -2.458615
2012-04-26 07:57:32 51°13.637 2°56.019 17.1872 0.957107 6.382756 -2.458615
2012-04-26 07:57:36 51°13.637 2°56.019 17.1884 0.955356 6.370189 -2.458615
2012-04-26 07:57:41 51°13.636 2°56.019 17.1884 0.955974 6.374624 -2.458615
2012-04-26 07:57:47 51°13.636 2°56.019 17.1886 0.955974 6.374624 -2.458615
2012-04-26 07:57:51 51°13.636 2°56.019 17.1892 0.95515 6.368711 -2.458615
2012-04-26 07:57:56 51°13.636 2°56.019 17.1883 0.955047 6.367972 -2.458615
2012-04-26 07:58:01 51°13.636 2°56.018 17.1875 0.955356 6.370189 -2.458615
2012-04-26 07:58:07 51°13.635 2°56.018 17.1898 0.954635 6.365015 -2.458615
2012-04-26 07:58:11 51°13.635 2°56.018 17.1902 0.95515 6.368711 -2.458615
2012-04-26 07:58:16 51°13.635 2°56.018 17.191 0.95515 6.368711 -2.458615
2012-04-26 07:58:21 51°13.635 2°56.018 17.1924 0.954532 6.364152 -2.458615
2012-04-26 07:58:26 51°13.635 2°56.018 17.1939 0.955356 6.370064 -2.458615
2012-04-26 07:58:32 51°13.635 2°56.018 17.1939 0.954635 6.364891 -2.458615
2012-04-26 07:58:36 51°13.635 2°56.018 17.1938 0.955562 6.371543 -2.458615
2012-04-26 07:58:41 51°13.635 2°56.018 17.1934 0.956489 6.378196 -2.458615
2012-04-26 07:58:46 51°13.635 2°56.018 17.194 0.956489 6.378196 -2.458615
2012-04-26 07:58:51 51°13.635 2°56.018 17.1943 0.956592 6.378935 -2.458615
2012-04-26 07:58:56 51°13.635 2°56.018 17.1898 0.95618 6.375978 -2.458615
2012-04-26 07:59:01 51°13.635 2°56.018 17.1813 0.956283 6.376717 -2.458615
2012-04-26 07:59:07 51°13.635 2°56.018 17.1782 0.955665 6.372157 -2.458615
2012-04-26 07:59:12 51°13.636 2°56.018 17.1811 0.956695 6.379674 -2.458615
2012-04-26 07:59:17 51°13.636 2°56.018 17.1816 0.956695 6.379674 -2.458615
2012-04-26 07:59:22 51°13.636 2°56.018 17.1833 0.955459 6.370679 -2.458615
2012-04-26 07:59:26 51°13.636 2°56.018 17.1862 0.955768 6.372896 -2.458615
2012-04-26 07:59:31 51°13.636 2°56.018 17.1888 0.956077 6.375114 -2.458615
2012-04-26 07:59:37 51°13.636 2°56.018 17.1905 0.956386 6.377332 -2.458615
2012-04-26 07:59:41 51°13.636 2°56.018 17.1914 0.956798 6.380288 -2.458615
2012-04-26 07:59:47 51°13.636 2°56.018 17.1918 0.956798 6.380288 -2.458615
2012-04-26 07:59:52 51°13.637 2°56.018 17.1923 0.956489 6.378071 -2.458615
2012-04-26 07:59:57 51°13.637 2°56.018 17.1921 0.955768 6.372896 -2.458615
2012-04-26 08:00:01 51°13.637 2°56.018 17.1925 0.956592 6.37881 -2.458615
2012-04-26 08:00:07 51°13.637 2°56.018 17.1932 0.955253 6.369076 -2.458615
2012-04-26 08:00:12 51°13.637 2°56.018 17.1939 0.95412 6.360946 -2.458615
2012-04-26 08:00:17 51°13.637 2°56.018 17.1936 0.95412 6.360946 -2.458615
2012-04-26 08:00:21 51°13.637 2°56.018 17.1946 0.954223 6.361685 -2.458615
2012-04-26 08:00:27 51°13.637 2°56.018 17.1953 0.956901 6.380903 -2.458615
2012-04-26 08:00:32 51°13.637 2°56.018 17.1991 0.954017 6.360207 -2.458615
2012-04-26 08:00:37 51°13.637 2°56.018 17.2015 0.954223 6.361685 -2.458615
2012-04-26 08:00:42 51°13.637 2°56.018 17.2032 0.955356 6.36969 -2.458615
2012-04-26 08:00:47 51°13.637 2°56.018 17.2055 0.955356 6.36969 -2.458615
2012-04-26 08:00:51 51°13.637 2°56.018 17.2069 0.954944 6.366859 -2.458615
2012-04-26 08:00:57 51°13.637 2°56.018 17.2096 0.955459 6.37043 -2.458615
2012-04-26 08:01:02 51°13.637 2°56.018 17.2108 0.954841 6.365995 -2.458615
2012-04-26 08:01:06 51°13.637 2°56.018 17.2109 0.954841 6.365995 -2.458615
2012-04-26 08:01:12 51°13.637 2°56.018 17.2116 0.955562 6.371169 -2.458615
2012-04-26 08:01:17 51°13.637 2°56.018 17.2122 0.955562 6.371169 -2.458615
2012-04-26 08:01:22 51°13.637 2°56.018 17.2122 0.956592 6.37856 -2.458615
2012-04-26 08:01:26 51°13.637 2°56.018 17.213 0.956901 6.380778 -2.458615
2012-04-26 08:01:32 51°13.637 2°56.018 17.2148 0.954841 6.365995 -2.458615
2012-04-26 08:01:37 51°13.638 2°56.018 17.2164 0.954738 6.365256 -2.458615
2012-04-26 08:01:42 51°13.638 2°56.018 17.2196 0.955871 6.373261 -2.458615
2012-04-26 08:01:46 51°13.638 2°56.018 17.2198 0.955871 6.373261 -2.458615
2012-04-26 08:01:52 51°13.638 2°56.018 17.2203 0.955768 6.372522 -2.458615
2012-04-26 08:01:57 51°13.638 2°56.019 17.2202 0.955974 6.374001 -2.458615
2012-04-26 08:02:02 51°13.638 2°56.019 17.2202 0.955562 6.371044 -2.458615
2012-04-26 08:02:07 51°13.638 2°56.019 17.2199 0.955356 6.369566 -2.458615
2012-04-26 08:02:12 51°13.639 2°56.019 17.2197 0.955253 6.368702 -2.458615
2012-04-26 08:02:17 51°13.639 2°56.019 17.2195 0.955253 6.368702 -2.458615
2012-04-26 08:02:22 51°13.639 2°56.019 17.2197 0.954223 6.361436 -2.458615
2012-04-26 08:02:27 51°13.639 2°56.019 17.2186 0.954223 6.361312 -2.458615
2012-04-26 08:02:32 51°13.639 2°56.019 17.2192 0.955459 6.37018 -2.458615
2012-04-26 08:02:37 51°13.639 2°56.019 17.2127 0.954326 6.362051 -2.458615
2012-04-26 08:02:42 51°13.639 2°56.019 17.2063 0.954944 6.366485 -2.458615
2012-04-26 08:02:46 51°13.639 2°56.019 17.2047 0.954944 6.366485 -2.458615
2012-04-26 08:02:52 51°13.64 2°56.019 17.2076 0.954532 6.363404 -2.458615
2012-04-26 08:02:56 51°13.64 2°56.019 17.2126 0.958446 6.391617 -2.458615
2012-04-26 08:03:01 51°13.64 2°56.019 17.2126 0.955459 6.37018 -2.458615
2012-04-26 08:03:07 51°13.64 2°56.019 17.2132 0.955665 6.371534 -2.458615
2012-04-26 08:03:11 51°13.64 2°56.019 17.2159 0.956489 6.377447 -2.458615
2012-04-26 08:03:16 51°13.64 2°56.019 17.2173 0.956489 6.377447 -2.458615
2012-04-26 08:03:21 51°13.64 2°56.019 17.2199 0.955665 6.371534 -2.458615
2012-04-26 08:03:26 51°13.64 2°56.019 17.2223 0.955459 6.370056 -2.458615
2012-04-26 08:03:31 51°13.639 2°56.019 17.223 0.954944 6.36636 -2.458615
2012-04-26 08:03:36 51°13.639 2°56.019 17.2242 0.956386 6.376708 -2.458615
2012-04-26 08:03:41 51°13.639 2°56.019 17.2251 0.954944 6.366236 -2.458615
2012-04-26 08:03:46 51°13.639 2°56.019 17.2256 0.954944 6.366236 -2.458615
2012-04-26 08:03:52 51°13.639 2°56.019 17.2258 0.955562 6.37067 -2.458615
2012-04-26 08:03:56 51°13.639 2°56.019 17.2267 0.956489 6.377322 -2.458615
2012-04-26 08:04:01 51°13.639 2°56.019 17.2263 0.957107 6.381757 -2.458615
2012-04-26 08:04:07 51°13.639 2°56.019 17.2251 0.960506 6.406154 -2.458615
2012-04-26 08:04:12 51°13.639 2°56.019 17.2228 0.95824 6.389888 -2.458615
2012-04-26 08:04:16 51°13.639 2°56.019 17.2218 0.95824 6.389888 -2.458615
2012-04-26 08:04:21 51°13.639 2°56.019 17.2214 0.955356 6.369067 -2.458615
2012-04-26 08:04:27 51°13.639 2°56.019 17.2233 0.955459 6.369806 -2.458615
2012-04-26 08:04:32 51°13.639 2°56.019 17.224 0.956077 6.374241 -2.458615
2012-04-26 08:04:36 51°13.638 2°56.019 17.2241 0.955974 6.373502 -2.458615
2012-04-26 08:04:41 51°13.638 2°56.019 17.2252 0.956592 6.377936 -2.458615
2012-04-26 08:04:47 51°13.638 2°56.019 17.2261 0.956592 6.377936 -2.458615
2012-04-26 08:04:51 51°13.638 2°56.018 17.2265 0.956901 6.380029 -2.458615
2012-04-26 08:04:56 51°13.638 2°56.018 17.2263 0.957313 6.382985 -2.458615
2012-04-26 08:05:01 51°13.637 2°56.018 17.2267 0.957004 6.380768 -2.458615
2012-04-26 08:05:06 51°13.636 2°56.017 17.2259 0.955974 6.373377 -2.458615
2012-04-26 08:05:11 51°13.636 2°56.017 17.2244 0.95618 6.374855 -2.458615
2012-04-26 08:05:16 51°13.636 2°56.017 17.2259 0.95618 6.374855 -2.458615
2012-04-26 08:05:21 51°13.636 2°56.017 17.2284 0.957004 6.380768 -2.458615
2012-04-26 08:05:26 51°13.635 2°56.017 17.2285 0.958446 6.391117 -2.458615
2012-04-26 08:05:32 51°13.635 2°56.017 17.2292 0.957931 6.38742 -2.458615
2012-04-26 08:05:37 51°13.635 2°56.017 17.2281 0.957828 6.386681 -2.458615
2012-04-26 08:05:41 51°13.635 2°56.017 17.2282 0.958137 6.388899 -2.458615
2012-04-26 08:05:47 51°13.635 2°56.017 17.2278 0.958137 6.388899 -2.458615
2012-04-26 08:05:51 51°13.635 2°56.017 17.2279 0.958343 6.390252 -2.458615
2012-04-26 08:05:56 51°13.635 2°56.017 17.2285 0.958034 6.388035 -2.458615
2012-04-26 08:06:01 51°13.635 2°56.017 17.2291 0.959785 6.400602 -2.458615
2012-04-26 08:06:06 51°13.635 2°56.017 17.2303 0.959682 6.399863 -2.458615
2012-04-26 08:06:11 51°13.635 2°56.017 17.2309 0.958858 6.393948 -2.458615
2012-04-26 08:06:17 51°13.635 2°56.017 17.2316 0.958858 6.393948 -2.458615
2012-04-26 08:06:22 51°13.635 2°56.017 17.2308 0.958755 6.393084 -2.458615
2012-04-26 08:06:27 51°13.635 2°56.017 17.2314 0.958549 6.391606 -2.458615
2012-04-26 08:06:32 51°13.635 2°56.017 17.2318 0.959476 6.398259 -2.458615
2012-04-26 08:06:37 51°13.635 2°56.017 17.2322 0.959476 6.398259 -2.458615
2012-04-26 08:06:42 51°13.635 2°56.017 17.2327 0.959167 6.396041 -2.458615
2012-04-26 08:06:47 51°13.635 2°56.017 17.2339 0.959167 6.396041 -2.458615
2012-04-26 08:06:52 51°13.635 2°56.017 17.2335 0.959167 6.396041 -2.458615
2012-04-26 08:06:57 51°13.636 2°56.017 17.2343 0.959579 6.398998 -2.458615
2012-04-26 08:07:02 51°13.635 2°56.017 17.2302 0.957931 6.387046 -2.458615
2012-04-26 08:07:07 51°13.635 2°56.017 17.2274 0.958137 6.388524 -2.458615
2012-04-26 08:07:12 51°13.635 2°56.017 17.2268 0.95927 6.396655 -2.458615
2012-04-26 08:07:17 51°13.635 2°56.017 17.2273 0.95927 6.396655 -2.458615
2012-04-26 08:07:22 51°13.636 2°56.017 17.2284 0.960506 6.405527 -2.458615
2012-04-26 08:07:26 51°13.636 2°56.017 17.2296 0.958858 6.393573 -2.458615
2012-04-26 08:07:32 51°13.635 2°56.017 17.2314 0.958034 6.38766 -2.458615
2012-04-26 08:07:37 51°13.636 2°56.017 17.2324 0.958446 6.390616 -2.458615
2012-04-26 08:07:41 51°13.636 2°56.017 17.2325 0.95824 6.389138 -2.458615
2012-04-26 08:07:46 51°13.636 2°56.017 17.2352 0.95824 6.389138 -2.458615
2012-04-26 08:07:51 51°13.636 2°56.017 17.237 0.958343 6.389877 -2.458615
2012-04-26 08:07:56 51°13.636 2°56.017 17.2377 0.958446 6.390616 -2.458615
2012-04-26 08:08:01 51°13.635 2°56.017 17.2373 0.958446 6.390616 -2.458615
2012-04-26 08:08:07 51°13.635 2°56.016 17.2365 0.959579 6.398623 -2.458615
2012-04-26 08:08:12 51°13.635 2°56.017 17.2367 0.957725 6.385317 -2.458615
2012-04-26 08:08:17 51°13.636 2°56.017 17.237 0.957725 6.385317 -2.458615
2012-04-26 08:08:22 51°13.636 2°56.017 17.2385 0.956901 6.379405 -2.458615
2012-04-26 08:08:27 51°13.635 2°56.017 17.2383 0.959579 6.398623 -2.458615
2012-04-26 08:08:32 51°13.635 2°56.017 17.24 0.956798 6.378541 -2.458615
2012-04-26 08:08:36 51°13.635 2°56.017 17.2408 0.955253 6.367581 -2.458615
2012-04-26 08:08:41 51°13.636 2°56.017 17.2387 0.956798 6.378541 -2.458615
2012-04-26 08:08:47 51°13.636 2°56.017 17.2282 0.956798 6.378541 -2.458615
2012-04-26 08:08:52 51°13.636 2°56.017 17.2195 0.956489 6.376324 -2.458615
2012-04-26 08:08:56 51°13.636 2°56.017 17.2205 0.959064 6.394801 -2.458615
2012-04-26 08:09:01 51°13.635 2°56.017 17.2256 0.959785 6.399976 -2.458615
2012-04-26 08:09:07 51°13.636 2°56.017 17.2316 0.956283 6.374846 -2.458615
2012-04-26 08:09:11 51°13.636 2°56.017 17.2357 0.957416 6.382975 -2.458615
2012-04-26 08:09:16 51°13.636 2°56.017 17.2384 0.957416 6.382975 -2.458615
2012-04-26 08:09:21 51°13.636 2°56.017 17.2392 0.957519 6.383589 -2.458615
2012-04-26 08:09:27 51°13.636 2°56.017 17.2397 0.959167 6.395541 -2.458615
2012-04-26 08:09:31 51°13.636 2°56.017 17.2412 0.9603 6.403547 -2.458615
2012-04-26 08:09:37 51°13.636 2°56.017 17.2384 0.959888 6.40059 -2.458615
2012-04-26 08:09:42 51°13.636 2°56.017 17.2378 0.959167 6.395415 -2.458615
2012-04-26 08:09:47 51°13.636 2°56.017 17.2394 0.959167 6.395415 -2.458615
2012-04-26 08:09:51 51°13.636 2°56.017 17.2389 0.957622 6.384204 -2.458615
2012-04-26 08:09:57 51°13.636 2°56.017 17.2397 0.957004 6.379894 -2.458615
2012-04-26 08:10:02 51°13.636 2°56.017 17.2411 0.956901 6.37903 -2.458615
2012-04-26 08:10:06 51°13.636 2°56.018 17.2427 0.95721 6.381247 -2.458615
2012-04-26 08:10:12 51°13.636 2°56.018 17.2424 0.956798 6.378291 -2.458615
2012-04-26 08:10:17 51°13.636 2°56.018 17.2419 0.956798 6.378291 -2.458615
2012-04-26 08:10:21 51°13.636 2°56.018 17.2447 0.95824 6.388638 -2.458615
2012-04-26 08:10:26 51°13.636 2°56.018 17.247 0.957622 6.384204 -2.458615
2012-04-26 08:10:31 51°13.636 2°56.017 17.2485 0.956695 6.377427 -2.458615
2012-04-26 08:10:36 51°13.636 2°56.018 17.25 0.958961 6.393812 -2.458615
2012-04-26 08:10:41 51°13.636 2°56.018 17.2513 0.958755 6.392209 -2.458615
2012-04-26 08:10:46 51°13.636 2°56.017 17.253 0.958755 6.392209 -2.458615
2012-04-26 08:10:51 51°13.636 2°56.017 17.254 0.958446 6.389991 -2.458615
2012-04-26 08:10:57 51°13.636 2°56.017 17.2558 0.958858 6.393073 -2.458615
2012-04-26 08:11:02 51°13.636 2°56.018 17.2567 0.958137 6.387774 -2.458615
2012-04-26 08:11:07 51°13.637 2°56.018 17.258 0.958549 6.39073 -2.458615
2012-04-26 08:11:12 51°13.636 2°56.018 17.2589 0.95824 6.388513 -2.458615
2012-04-26 08:11:16 51°13.636 2°56.018 17.2592 0.95824 6.388513 -2.458615
2012-04-26 08:11:22 51°13.636 2°56.018 17.2609 0.957519 6.38334 -2.458615
2012-04-26 08:11:27 51°13.636 2°56.018 17.2621 0.958343 6.389127 -2.458615
2012-04-26 08:11:32 51°13.636 2°56.018 17.2626 0.958034 6.387035 -2.458615
2012-04-26 08:11:36 51°13.636 2°56.018 17.2646 0.957313 6.381737 -2.458615
2012-04-26 08:11:42 51°13.636 2°56.018 17.2666 0.956901 6.378781 -2.458615
2012-04-26 08:11:47 51°13.635 2°56.018 17.2659 0.956901 6.378781 -2.458615
2012-04-26 08:11:51 51°13.636 2°56.018 17.2671 0.957416 6.382476 -2.458615
2012-04-26 08:11:56 51°13.636 2°56.018 17.2674 0.957725 6.384693 -2.458615
2012-04-26 08:12:02 51°13.636 2°56.018 17.2683 0.957107 6.380259 -2.458615
2012-04-26 08:12:07 51°13.636 2°56.018 17.2682 0.956386 6.375086 -2.458615
2012-04-26 08:12:12 51°13.636 2°56.018 17.2695 0.956489 6.375825 -2.458615
2012-04-26 08:12:17 51°13.636 2°56.018 17.2719 0.956489 6.375825 -2.458615
2012-04-26 08:12:22 51°13.636 2°56.018 17.2699 0.957004 6.379395 -2.458615
2012-04-26 08:12:27 51°13.636 2°56.018 17.2717 0.956592 6.376439 -2.458615
2012-04-26 08:12:32 51°13.636 2°56.018 17.2708 0.959373 6.396393 -2.458615
2012-04-26 08:12:37 51°13.636 2°56.018 17.2694 0.959682 6.398611 -2.458615
2012-04-26 08:12:42 51°13.635 2°56.018 17.2692 0.957725 6.384568 -2.458615
2012-04-26 08:12:47 51°13.636 2°56.017 17.2697 0.957725 6.384568 -2.458615
2012-04-26 08:12:52 51°13.636 2°56.017 17.2722 0.955459 6.368311 -2.458615
2012-04-26 08:12:57 51°13.636 2°56.017 17.2733 0.956386 6.374836 -2.458615
2012-04-26 08:13:02 51°13.635 2°56.017 17.274 0.956798 6.377792 -2.458615
2012-04-26 08:13:07 51°13.635 2°56.017 17.2751 0.956489 6.375575 -2.458615
2012-04-26 08:13:12 51°13.635 2°56.017 17.2765 0.95618 6.373359 -2.458615
2012-04-26 08:13:16 51°13.635 2°56.017 17.2768 0.95618 6.373359 -2.458615
2012-04-26 08:13:22 51°13.635 2°56.017 17.2766 0.954635 6.362276 -2.458615
2012-04-26 08:13:27 51°13.635 2°56.017 17.2777 0.955253 6.366584 -2.458615
2012-04-26 08:13:31 51°13.635 2°56.017 17.2789 0.955356 6.367448 -2.458615
2012-04-26 08:13:36 51°13.635 2°56.017 17.2806 0.956489 6.375451 -2.458615
2012-04-26 08:13:41 51°13.636 2°56.017 17.2801 0.956489 6.375451 -2.458615
2012-04-26 08:13:46 51°13.636 2°56.017 17.2803 0.956489 6.375451 -2.458615
2012-04-26 08:13:51 51°13.636 2°56.017 17.2787 0.955562 6.368801 -2.458615
2012-04-26 08:13:56 51°13.636 2°56.017 17.2804 0.954944 6.364368 -2.458615
2012-04-26 08:14:01 51°13.636 2°56.017 17.2789 0.957107 6.379884 -2.458615
2012-04-26 08:14:06 51°13.636 2°56.017 17.2755 0.957107 6.379759 -2.458615
2012-04-26 08:14:11 51°13.636 2°56.017 17.2764 0.954841 6.363505 -2.458615
2012-04-26 08:14:17 51°13.636 2°56.016 17.2781 0.954841 6.363505 -2.458615
2012-04-26 08:14:22 51°13.636 2°56.016 17.2776 0.95412 6.358333 -2.458615
2012-04-26 08:14:27 51°13.636 2°56.016 17.2736 0.955974 6.371632 -2.458615
2012-04-26 08:14:32 51°13.636 2°56.016 17.2728 0.952781 6.348731 -2.458615
2012-04-26 08:14:37 51°13.636 2°56.016 17.2724 0.950309 6.330882 -2.458615
2012-04-26 08:14:42 51°13.636 2°56.016 17.2737 0.955253 6.366335 -2.458615
2012-04-26 08:14:47 51°13.636 2°56.016 17.2758 0.955253 6.366335 -2.458615
2012-04-26 08:14:52 51°13.636 2°56.016 17.278 0.955562 6.368552 -2.458615
2012-04-26 08:14:57 51°13.636 2°56.016 17.2786 0.956798 6.377418 -2.458615
2012-04-26 08:15:02 51°13.636 2°56.016 17.2802 0.95721 6.380374 -2.458615
2012-04-26 08:15:06 51°13.636 2°56.016 17.2796 0.95412 6.358209 -2.458615
2012-04-26 08:15:12 51°13.636 2°56.016 17.2787 0.95721 6.380374 -2.458615
2012-04-26 08:15:15 51°13.636 2°56.016 17.2784 0.958034 6.386285 -2.458615
2012-04-26 08:15:22 51°13.636 2°56.016 17.279 0.958034 6.386285 -2.458615
2012-04-26 08:15:27 51°13.636 2°56.016 17.2795 0.955871 6.370643 -2.458615
2012-04-26 08:15:32 51°13.636 2°56.016 17.2805 0.957622 6.383205 -2.458615
2012-04-26 08:15:37 51°13.636 2°56.016 17.2823 0.95721 6.380249 -2.458615
2012-04-26 08:15:42 51°13.636 2°56.016 17.2843 0.956283 6.373599 -2.458615
2012-04-26 08:15:47 51°13.636 2°56.016 17.2848 0.956283 6.373599 -2.458615
2012-04-26 08:15:52 51°13.636 2°56.016 17.2854 0.955047 6.364733 -2.458615
2012-04-26 08:15:56 51°13.636 2°56.017 17.2846 0.952575 6.346881 -2.458615
2012-04-26 08:16:02 51°13.636 2°56.017 17.2876 0.955871 6.370519 -2.458615
2012-04-26 08:16:07 51°13.636 2°56.017 17.2881 0.954841 6.363131 -2.458615
2012-04-26 08:16:12 51°13.636 2°56.017 17.2912 0.956592 6.375691 -2.458615
2012-04-26 08:16:17 51°13.636 2°56.017 17.2921 0.956592 6.375691 -2.458615
2012-04-26 08:16:22 51°13.636 2°56.017 17.2938 0.95618 6.372735 -2.458615
2012-04-26 08:16:26 51°13.636 2°56.017 17.2934 0.953605 6.354267 -2.458615
2012-04-26 08:16:32 51°13.636 2°56.017 17.2939 0.955871 6.370519 -2.458615
2012-04-26 08:16:37 51°13.636 2°56.017 17.2942 0.955356 6.366825 -2.458615
2012-04-26 08:16:42 51°13.636 2°56.017 17.2961 0.954944 6.36387 -2.458615
2012-04-26 08:16:47 51°13.636 2°56.017 17.2952 0.954944 6.36387 -2.458615
2012-04-26 08:16:52 51°13.636 2°56.017 17.2953 0.952575 6.346757 -2.458615
2012-04-26 08:16:57 51°13.636 2°56.017 17.2968 0.95412 6.357836 -2.458615
2012-04-26 08:17:01 51°13.636 2°56.017 17.2983 0.955665 6.368917 -2.458615
2012-04-26 08:17:07 51°13.636 2°56.017 17.2964 0.956386 6.373964 -2.458615
2012-04-26 08:17:12 51°13.636 2°56.017 17.2971 0.957725 6.383569 -2.458615
2012-04-26 08:17:17 51°13.637 2°56.017 17.2973 0.957725 6.383569 -2.458615
2012-04-26 08:17:21 51°13.636 2°56.017 17.297 0.957107 6.37926 -2.458615
2012-04-26 08:17:27 51°13.636 2°56.017 17.2958 0.954738 6.362144 -2.458615
2012-04-26 08:17:32 51°13.636 2°56.017 17.2945 0.956901 6.377658 -2.458615
2012-04-26 08:17:37 51°13.636 2°56.016 17.2967 0.956283 6.373225 -2.458615
2012-04-26 08:17:42 51°13.637 2°56.016 17.3001 0.957107 6.379011 -2.458615
2012-04-26 08:17:47 51°13.637 2°56.016 17.301 0.957107 6.379011 -2.458615
2012-04-26 08:17:52 51°13.637 2°56.016 17.3018 0.956489 6.374578 -2.458615
2012-04-26 08:17:57 51°13.637 2°56.016 17.3004 0.954635 6.36128 -2.458615
2012-04-26 08:18:02 51°13.637 2°56.016 17.2997 0.95618 6.372361 -2.458615
2012-04-26 08:18:06 51°13.637 2°56.016 17.3011 0.957416 6.381227 -2.458615
2012-04-26 08:18:12 51°13.637 2°56.016 17.2995 0.956283 6.372976 -2.458615
2012-04-26 08:18:17 51°13.637 2°56.016 17.2972 0.956283 6.372976 -2.458615
2012-04-26 08:18:21 51°13.636 2°56.016 17.2925 0.954223 6.358201 -2.458615
2012-04-26 08:18:27 51°13.637 2°56.016 17.2921 0.956077 6.371373 -2.458615
2012-04-26 08:18:32 51°13.637 2°56.016 17.295 0.958549 6.389231 -2.458615
2012-04-26 08:18:36 51°13.637 2°56.016 17.2966 0.956695 6.375931 -2.458615
2012-04-26 08:18:41 51°13.637 2°56.016 17.2982 0.956798 6.37667 -2.458615
2012-04-26 08:18:46 51°13.637 2°56.016 17.2976 0.956798 6.37667 -2.458615
2012-04-26 08:18:52 51°13.637 2°56.016 17.2962 0.955871 6.369896 -2.458615
2012-04-26 08:18:57 51°13.637 2°56.016 17.2971 0.955047 6.363986 -2.458615
2012-04-26 08:19:01 51°13.637 2°56.016 17.297 0.956489 6.374328 -2.458615
2012-04-26 08:19:06 51°13.637 2°56.016 17.2962 0.958446 6.388367 -2.458615
2012-04-26 08:19:11 51°13.637 2°56.016 17.2936 0.956077 6.371249 -2.458615
2012-04-26 08:19:16 51°13.636 2°56.016 17.2886 0.956077 6.371249 -2.458615
2012-04-26 08:19:21 51°13.637 2°56.016 17.2877 0.953708 6.35426 -2.458615
2012-04-26 08:19:25 51°13.637 2°56.017 17.2908 0.954635 6.360783 -2.458615
2012-04-26 08:19:31 51°13.637 2°56.017 17.2861 0.953605 6.353397 -2.458615
2012-04-26 08:19:37 51°13.637 2°56.017 17.2919 0.955047 6.363737 -2.458615
2012-04-26 08:19:42 51°13.637 2°56.017 17.2948 0.953914 6.355613 -2.458615
2012-04-26 08:19:46 51°13.637 2°56.017 17.2943 0.953914 6.355613 -2.458615
2012-04-26 08:19:52 51°13.637 2°56.017 17.296 0.951648 6.339242 -2.458615
2012-04-26 08:19:56 51°13.637 2°56.017 17.2968 0.953502 6.352534 -2.458615
2012-04-26 08:20:01 51°13.637 2°56.017 17.3006 0.956489 6.373955 -2.458615
2012-04-26 08:20:06 51°13.636 2°56.017 17.2998 0.951648 6.339242 -2.458615
2012-04-26 08:20:12 51°13.636 2°56.017 17.2987 0.953811 6.354626 -2.458615
2012-04-26 08:20:17 51°13.636 2°56.017 17.2986 0.953811 6.354626 -2.458615
2012-04-26 08:20:21 51°13.636 2°56.017 17.3019 0.954326 6.358318 -2.458615
2012-04-26 08:20:26 51°13.636 2°56.017 17.3038 0.954326 6.358443 -2.458615
2012-04-26 08:20:31 51°13.636 2°56.017 17.3062 0.954326 6.358318 -2.458615
2012-04-26 08:20:36 51°13.636 2°56.017 17.3083 0.957107 6.378262 -2.458615
2012-04-26 08:20:41 51°13.636 2°56.017 17.3087 0.954326 6.358318 -2.458615
2012-04-26 08:20:46 51°13.636 2°56.017 17.309 0.954326 6.358318 -2.458615
2012-04-26 08:20:51 51°13.636 2°56.017 17.3116 0.950824 6.333088 -2.458615
2012-04-26 08:20:56 51°13.637 2°56.017 17.3126 0.953914 6.35524 -2.458615
2012-04-26 08:21:01 51°13.636 2°56.017 17.314 0.956901 6.37666 -2.458615
2012-04-26 08:21:06 51°13.636 2°56.017 17.3155 0.952884 6.347855 -2.458615
2012-04-26 08:21:12 51°13.636 2°56.017 17.3153 0.954223 6.357455 -2.458615
2012-04-26 08:21:16 51°13.636 2°56.017 17.3151 0.954223 6.357455 -2.458615
2012-04-26 08:21:21 51°13.636 2°56.017 17.3161 0.954017 6.355854 -2.458615
2012-04-26 08:21:27 51°13.636 2°56.018 17.3165 0.953914 6.355116 -2.458615
2012-04-26 08:21:31 51°13.636 2°56.018 17.3181 0.953811 6.354377 -2.458615
2012-04-26 08:21:37 51°13.636 2°56.018 17.3197 0.953811 6.354377 -2.458615
2012-04-26 08:21:41 51°13.636 2°56.018 17.3184 0.950412 6.330011 -2.458615
2012-04-26 08:21:46 51°13.636 2°56.018 17.3181 0.950412 6.330011 -2.458615
2012-04-26 08:21:51 51°13.636 2°56.018 17.3189 0.953502 6.352037 -2.458615
2012-04-26 08:21:57 51°13.636 2°56.018 17.32 0.953708 6.353639 -2.458615
2012-04-26 08:22:01 51°13.636 2°56.018 17.3203 0.955562 6.366933 -2.458615
2012-04-26 08:22:06 51°13.636 2°56.018 17.3209 0.952781 6.346868 -2.458615
2012-04-26 08:22:11 51°13.636 2°56.018 17.322 0.953914 6.354991 -2.458615
2012-04-26 08:22:17 51°13.636 2°56.018 17.3231 0.953914 6.354991 -2.458615
2012-04-26 08:22:21 51°13.636 2°56.018 17.3245 0.95412 6.356468 -2.458615
2012-04-26 08:22:26 51°13.636 2°56.018 17.3262 0.953296 6.350561 -2.458615
2012-04-26 08:22:32 51°13.636 2°56.018 17.3284 0.952472 6.344529 -2.458615
2012-04-26 08:22:36 51°13.636 2°56.018 17.3306 0.953399 6.351175 -2.458615
2012-04-26 08:22:41 51°13.636 2°56.018 17.3315 0.952781 6.346744 -2.458615
2012-04-26 08:22:47 51°13.636 2°56.018 17.3302 0.952781 6.346744 -2.458615
2012-04-26 08:22:51 51°13.636 2°56.018 17.3293 0.954429 6.35856 -2.458615
2012-04-26 08:22:56 51°13.636 2°56.018 17.328 0.953296 6.350436 -2.458615
2012-04-26 08:23:02 51°13.636 2°56.018 17.3281 0.953399 6.351051 -2.458615
2012-04-26 08:23:07 51°13.636 2°56.018 17.3284 0.954223 6.356958 -2.458615
2012-04-26 08:23:12 51°13.635 2°56.018 17.328 0.952369 6.343667 -2.458615
2012-04-26 08:23:17 51°13.635 2°56.018 17.3254 0.952369 6.343667 -2.458615
2012-04-26 08:23:22 51°13.635 2°56.018 17.3244 0.953811 6.354004 -2.458615
2012-04-26 08:23:27 51°13.635 2°56.018 17.3252 0.953605 6.352403 -2.458615
2012-04-26 08:23:32 51°13.635 2°56.018 17.3267 0.95309 6.348711 -2.458615
2012-04-26 08:23:37 51°13.635 2°56.018 17.33 0.953502 6.351665 -2.458615
2012-04-26 08:23:42 51°13.635 2°56.018 17.3316 0.952575 6.345019 -2.458615
2012-04-26 08:23:47 51°13.635 2°56.019 17.333 0.952575 6.345019 -2.458615
2012-04-26 08:23:51 51°13.634 2°56.019 17.3324 0.954532 6.359049 -2.458615
2012-04-26 08:23:57 51°13.632 2°56.021 17.3332 0.953811 6.35388 -2.458615
2012-04-26 08:24:02 51°13.631 2°56.021 17.335 0.952987 6.347849 -2.458615
2012-04-26 08:24:07 51°13.63 2°56.022 17.3363 0.95412 6.355971 -2.458615
2012-04-26 08:24:11 51°13.63 2°56.023 17.3365 0.954017 6.355233 -2.458615
2012-04-26 08:24:16 51°13.629 2°56.023 17.336 0.954017 6.355233 -2.458615
2012-04-26 08:24:22 51°13.629 2°56.022 17.3342 0.954017 6.355233 -2.458615
2012-04-26 08:24:27 51°13.63 2°56.022 17.3334 0.953811 6.353756 -2.458615
2012-04-26 08:24:31 51°13.63 2°56.022 17.3337 0.953399 6.350678 -2.458615
2012-04-26 08:24:36 51°13.63 2°56.022 17.3344 0.954635 6.359539 -2.458615
2012-04-26 08:24:41 51°13.631 2°56.022 17.3335 0.953399 6.350678 -2.458615
2012-04-26 08:24:46 51°13.631 2°56.022 17.3334 0.953399 6.350678 -2.458615
2012-04-26 08:24:51 51°13.631 2°56.021 17.3383 0.95412 6.355847 -2.458615
2012-04-26 08:24:55 51°13.631 2°56.021 17.341 0.956386 6.372094 -2.458615
2012-04-26 08:25:01 51°13.631 2°56.021 17.3462 0.953399 6.350678 -2.458615
2012-04-26 08:25:06 51°13.631 2°56.021 17.3514 0.953914 6.35437 -2.458615
2012-04-26 08:25:11 51°13.632 2°56.021 17.3476 0.953605 6.352031 -2.458615
2012-04-26 08:25:16 51°13.632 2°56.021 17.349 0.953605 6.352031 -2.458615
2012-04-26 08:25:21 51°13.632 2°56.021 17.3475 0.952575 6.344647 -2.458615
2012-04-26 08:25:26 51°13.632 2°56.021 17.3408 0.953914 6.354246 -2.458615
2012-04-26 08:25:31 51°13.632 2°56.021 17.3329 0.952472 6.343909 -2.458615
2012-04-26 08:25:36 51°13.632 2°56.021 17.3342 0.954429 6.357938 -2.458615
2012-04-26 08:25:42 51°13.632 2°56.021 17.331 0.95618 6.370493 -2.458615
2012-04-26 08:25:47 51°13.633 2°56.021 17.3296 0.95618 6.370493 -2.458615
2012-04-26 08:25:52 51°13.633 2°56.021 17.3284 0.953193 6.349077 -2.458615
2012-04-26 08:25:56 51°13.633 2°56.021 17.3277 0.952884 6.346738 -2.458615
2012-04-26 08:26:02 51°13.633 2°56.021 17.3226 0.954841 6.360767 -2.458615
2012-04-26 08:26:07 51°13.633 2°56.021 17.3199 0.950515 6.329635 -2.458615
2012-04-26 08:26:12 51°13.633 2°56.021 17.3171 0.954223 6.356213 -2.458615
2012-04-26 08:26:16 51°13.634 2°56.021 17.3177 0.954223 6.356213 -2.458615
2012-04-26 08:26:22 51°13.634 2°56.021 17.3202 0.950515 6.329635 -2.458615
2012-04-26 08:26:27 51°13.634 2°56.02 17.3231 0.953605 6.351782 -2.458615
2012-04-26 08:26:32 51°13.634 2°56.02 17.3268 0.954944 6.361382 -2.458615
2012-04-26 08:26:36 51°13.634 2°56.02 17.3294 0.953811 6.353259 -2.458615
2012-04-26 08:26:42 51°13.634 2°56.02 17.3351 0.954017 6.354736 -2.458615
2012-04-26 08:26:47 51°13.634 2°56.02 17.3329 0.954017 6.354736 -2.458615
2012-04-26 08:26:52 51°13.634 2°56.02 17.3323 0.94897 6.318441 -2.458615
2012-04-26 08:26:56 51°13.634 2°56.02 17.3343 0.951545 6.336893 -2.458615
2012-04-26 08:27:02 51°13.634 2°56.02 17.337 0.952781 6.345752 -2.458615
2012-04-26 08:27:07 51°13.635 2°56.02 17.3402 0.953914 6.353873 -2.458615
2012-04-26 08:27:12 51°13.635 2°56.02 17.349 0.951442 6.336155 -2.458615
2012-04-26 08:27:16 51°13.635 2°56.02 17.348 0.951442 6.336155 -2.458615
2012-04-26 08:27:21 51°13.635 2°56.02 17.3494 0.951854 6.339108 -2.458615
2012-04-26 08:27:27 51°13.635 2°56.02 17.3496 0.952678 6.345013 -2.458615
2012-04-26 08:27:32 51°13.635 2°56.02 17.3513 0.953605 6.351658 -2.458615
2012-04-26 08:27:36 51°13.635 2°56.02 17.3505 0.952472 6.343413 -2.458615
2012-04-26 08:27:41 51°13.635 2°56.02 17.3508 0.951648 6.337507 -2.458615
2012-04-26 08:27:46 51°13.635 2°56.02 17.3444 0.951648 6.337507 -2.458615
2012-04-26 08:27:52 51°13.635 2°56.02 17.3333 0.951545 6.336645 -2.458615
2012-04-26 08:27:56 51°13.635 2°56.02 17.341 0.956489 6.37221 -2.458615
2012-04-26 08:28:02 51°13.635 2°56.02 17.345 0.954429 6.357441 -2.458615
2012-04-26 08:28:07 51°13.635 2°56.02 17.3528 0.954738 6.359656 -2.458615
2012-04-26 08:28:11 51°13.635 2°56.02 17.3597 0.956695 6.373687 -2.458615
2012-04-26 08:28:16 51°13.635 2°56.02 17.3618 0.956695 6.373687 -2.458615
2012-04-26 08:28:22 51°13.635 2°56.02 17.3636 0.955871 6.367779 -2.458615
2012-04-26 08:28:27 51°13.635 2°56.02 17.3656 0.953708 6.352272 -2.458615
2012-04-26 08:28:31 51°13.635 2°56.02 17.3662 0.954223 6.35584 -2.458615
2012-04-26 08:28:36 51°13.634 2°56.02 17.368 0.953193 6.348457 -2.458615
2012-04-26 08:28:41 51°13.635 2°56.02 17.3761 0.953193 6.348457 -2.458615
2012-04-26 08:28:46 51°13.635 2°56.02 17.3818 0.953193 6.348457 -2.458615
2012-04-26 08:28:51 51°13.635 2°56.02 17.3811 0.954223 6.35584 -2.458615
2012-04-26 08:28:57 51°13.634 2°56.02 17.381 0.953914 6.353501 -2.458615
2012-04-26 08:29:01 51°13.634 2°56.02 17.3804 0.953914 6.353501 -2.458615
2012-04-26 08:29:06 51°13.634 2°56.02 17.3798 0.953708 6.352024 -2.458615
2012-04-26 08:29:11 51°13.634 2°56.02 17.3794 0.954429 6.357192 -2.458615
2012-04-26 08:29:16 51°13.633 2°56.019 17.3772 0.954429 6.357192 -2.458615
2012-04-26 08:29:21 51°13.633 2°56.019 17.3752 0.954017 6.354239 -2.458615
2012-04-26 08:29:26 51°13.633 2°56.019 17.3776 0.952266 6.341565 -2.458615
2012-04-26 08:29:31 51°13.633 2°56.019 17.3745 0.954017 6.354115 -2.458615
2012-04-26 08:29:37 51°13.632 2°56.019 17.3688 0.954635 6.358545 -2.458615
2012-04-26 08:29:41 51°13.632 2°56.019 17.3669 0.954429 6.357068 -2.458615
2012-04-26 08:29:46 51°13.632 2°56.019 17.3605 0.954429 6.357068 -2.458615
2012-04-26 08:29:51 51°13.632 2°56.019 17.3599 0.952884 6.34587 -2.458615
2012-04-26 08:29:56 51°13.632 2°56.019 17.3654 0.949588 6.322251 -2.458615
2012-04-26 08:30:01 51°13.632 2°56.019 17.3648 0.949073 6.318561 -2.458615
2012-04-26 08:30:06 51°13.632 2°56.019 17.368 0.951957 6.339102 -2.458615
2012-04-26 08:30:11 51°13.632 2°56.019 17.3681 0.954223 6.355343 -2.458615
2012-04-26 08:30:16 51°13.633 2°56.019 17.367 0.954223 6.355343 -2.458615
2012-04-26 08:30:21 51°13.632 2°56.019 17.3683 0.951751 6.337626 -2.458615
2012-04-26 08:30:26 51°13.632 2°56.019 17.3664 0.95 6.325079 -2.458615
2012-04-26 08:30:31 51°13.632 2°56.019 17.3653 0.950206 6.326431 -2.458615
2012-04-26 08:30:36 51°13.632 2°56.018 17.3674 0.954944 6.360511 -2.458615
2012-04-26 08:30:41 51°13.633 2°56.018 17.3729 0.954017 6.353866 -2.458615
2012-04-26 08:30:46 51°13.632 2°56.018 17.3635 0.954017 6.353866 -2.458615
2012-04-26 08:30:51 51°13.632 2°56.018 17.3007 0.944851 6.288066 -2.458615
2012-04-26 08:30:56 51°13.633 2°56.017 17.2593 0.950206 6.326308 -2.458615
2012-04-26 08:31:01 51°13.634 2°56.014 17.0548 0.965347 6.434871 -2.458615
2012-04-26 08:31:06 51°13.635 2°56.011 17.2676 0.972659 6.48749 -2.458615
2012-04-26 08:31:11 51°13.636 2°56.007 17.2444 0.975543 6.508457 -2.458615
2012-04-26 08:31:16 51°13.638 2°56.002 17.2679 0.975543 6.508457 -2.458615
2012-04-26 08:31:21 51°13.639 2°55.997 17.2448 0.975749 6.509937 -2.458615
2012-04-26 08:31:26 51°13.641 2°55.991 17.2484 0.971835 6.4817 -2.458615
2012-04-26 08:31:31 51°13.642 2°55.984 17.2506 0.978015 6.526088 -2.458615
2012-04-26 08:31:37 51°13.644 2°55.977 17.3578 0.978221 6.527568 -2.458615
2012-04-26 08:31:42 51°13.646 2°55.971 17.337 0.972144 6.484046 -2.458615
2012-04-26 08:31:46 51°13.647 2°55.966 17.37 0.972144 6.484046 -2.458615
2012-04-26 08:31:52 51°13.648 2°55.96 17.3551 0.956489 6.371587 -2.458615
2012-04-26 08:31:57 51°13.649 2°55.957 17.3616 0.952884 6.345498 -2.458615
2012-04-26 08:32:02 51°13.65 2°55.955 17.3685 0.946498 6.299622 -2.458615
2012-04-26 08:32:06 51°13.65 2°55.955 17.3597 0.95 6.324585 -2.458615
2012-04-26 08:32:12 51°13.651 2°55.955 17.307 0.96236 6.413316 -2.458615
2012-04-26 08:32:17 51°13.652 2°55.953 17.3128 0.96236 6.413316 -2.458615
2012-04-26 08:32:22 51°13.653 2°55.951 17.2874 0.956798 6.373304 -2.458615
2012-04-26 08:32:26 51°13.653 2°55.949 17.1989 0.967406 6.449402 -2.458615
2012-04-26 08:32:32 51°13.655 2°55.944 17.121 0.972659 6.486983 -2.458615
2012-04-26 08:32:37 51°13.656 2°55.939 17.2896 0.973792 6.495373 -2.458615
2012-04-26 08:32:42 51°13.657 2°55.935 17.3118 0.977912 6.52522 -2.458615
2012-04-26 08:32:46 51°13.657 2°55.931 17.3969 0.977912 6.52522 -2.458615
2012-04-26 08:32:52 51°13.658 2°55.928 17.395 0.930123 6.182304 -2.458615
2012-04-26 08:32:56 51°13.658 2°55.927 17.3072 0.918176 6.096329 -2.458615
2012-04-26 08:33:02 51°13.658 2°55.927 17.3467 0.953502 6.349182 -2.458615
2012-04-26 08:33:07 51°13.659 2°55.928 17.2867 0.9431 6.27467 -2.458615
2012-04-26 08:33:11 51°13.659 2°55.929 17.2171 0.948661 6.314499 -2.458615
2012-04-26 08:33:17 51°13.659 2°55.929 17.1403 0.948661 6.314499 -2.458615
2012-04-26 08:33:22 51°13.659 2°55.929 17.2069 0.942791 6.272335 -2.458615
2012-04-26 08:33:27 51°13.66 2°55.928 17.2771 0.976264 6.512617 -2.458615
2012-04-26 08:33:31 51°13.661 2°55.926 17.1971 0.957622 6.378963 -2.458615
2012-04-26 08:33:37 51°13.662 2°55.922 17.2383 0.974513 6.500169 -2.458615
2012-04-26 08:33:42 51°13.664 2°55.917 17.2503 0.963493 6.421192 -2.458615
2012-04-26 08:33:47 51°13.665 2°55.912 17.2628 0.963493 6.421192 -2.458615
2012-04-26 08:33:51 51°13.667 2°55.907 17.2858 0.96545 6.435107 -2.458615
2012-04-26 08:33:57 51°13.669 2°55.899 17.3196 0.971114 6.475891 -2.458615
2012-04-26 08:34:02 51°13.671 2°55.892 17.3143 0.965758 6.437324 -2.458615
2012-04-26 08:34:07 51°13.673 2°55.884 17.3311 0.955356 6.362718 -2.458615
2012-04-26 08:34:11 51°13.675 2°55.878 17.3492 0.955459 6.363457 -2.458615
2012-04-26 08:34:17 51°13.677 2°55.869 17.3397 0.955459 6.363457 -2.458615
2012-04-26 08:34:22 51°13.68 2°55.862 17.3377 0.942791 6.272457 -2.458615
2012-04-26 08:34:27 51°13.682 2°55.855 17.343 0.956077 6.367513 -2.458615
2012-04-26 08:34:31 51°13.683 2°55.849 17.3428 0.949588 6.320892 -2.458615
2012-04-26 08:34:36 51°13.686 2°55.842 17.301 0.948249 6.311301 -2.458615
2012-04-26 08:34:42 51°13.689 2°55.833 17.299 0.943718 6.278726 -2.458615
2012-04-26 08:34:46 51°13.691 2°55.827 17.3042 0.943718 6.278726 -2.458615
2012-04-26 08:34:51 51°13.693 2°55.819 17.337 0.957828 6.379816 -2.458615
2012-04-26 08:34:57 51°13.696 2°55.81 17.326 0.953502 6.348934 -2.458615
2012-04-26 08:35:02 51°13.698 2°55.803 17.3249 0.948558 6.313391 -2.458615
2012-04-26 08:35:07 51°13.7 2°55.796 17.3222 0.953914 6.351762 -2.458615
2012-04-26 08:35:11 51°13.702 2°55.791 17.3209 0.952163 6.339092 -2.458615
2012-04-26 08:35:17 51°13.704 2°55.782 17.3091 0.952163 6.339092 -2.458615
2012-04-26 08:35:22 51°13.706 2°55.775 17.2972 0.950412 6.326547 -2.458615
2012-04-26 08:35:27 51°13.708 2°55.768 17.2939 0.953296 6.34721 -2.458615
2012-04-26 08:35:31 51°13.709 2°55.762 17.2977 0.956695 6.37157 -2.458615
2012-04-26 08:35:36 51°13.71 2°55.755 17.3004 0.956283 6.368617 -2.458615
2012-04-26 08:35:42 51°13.712 2°55.747 17.3053 0.957828 6.379567 -2.458615
2012-04-26 08:35:47 51°13.713 2°55.74 17.3096 0.957828 6.379567 -2.458615
2012-04-26 08:35:51 51°13.713 2°55.736 17.3099 0.959579 6.39212 -2.458615
2012-04-26 08:35:56 51°13.714 2°55.729 17.3138 0.959064 6.388428 -2.458615
2012-04-26 08:36:01 51°13.715 2°55.724 17.319 0.959167 6.389166 -2.458615
2012-04-26 08:36:07 51°13.715 2°55.718 17.327 0.963905 6.423144 -2.458615
2012-04-26 08:36:11 51°13.716 2°55.715 17.3445 0.966891 6.444572 -2.458615
2012-04-26 08:36:16 51°13.716 2°55.713 17.3525 0.966891 6.444572 -2.458615
2012-04-26 08:36:22 51°13.717 2°55.712 17.3528 0.972144 6.482399 -2.458615
2012-04-26 08:36:26 51°13.717 2°55.712 17.3491 0.961845 6.408494 -2.458615
2012-04-26 08:36:31 51°13.718 2°55.711 17.3472 0.9672 6.446915 -2.458615
2012-04-26 08:36:36 51°13.719 2°55.712 17.3451 0.965964 6.438047 -2.458615
2012-04-26 08:36:41 51°13.721 2°55.712 17.3652 0.990375 6.613519 -2.458615
2012-04-26 08:36:46 51°13.723 2°55.713 17.3181 0.990375 6.613519 -2.458615
2012-04-26 08:36:51 51°13.725 2°55.715 17.3356 0.928475 6.169316 -2.458615
2012-04-26 08:36:56 51°13.728 2°55.716 17.2549 0.926415 6.154112 -2.458615
2012-04-26 08:37:02 51°13.73 2°55.717 17.2043 0.928681 6.170306 -2.458615
2012-04-26 08:37:07 51°13.731 2°55.717 17.14 0.963493 6.419561 -2.458615
2012-04-26 08:37:11 51°13.732 2°55.717 17.2532 0.948455 6.312036 -2.458615
2012-04-26 08:37:16 51°13.732 2°55.717 17.1329 0.948455 6.312036 -2.458615
2012-04-26 08:37:22 51°13.731 2°55.716 17.1897 0.942894 6.271847 -2.458615
2012-04-26 08:37:26 51°13.73 2°55.715 17.2509 0.968333 6.454162 -2.458615
2012-04-26 08:37:31 51°13.729 2°55.714 17.2469 0.965243 6.432246 -2.458615
2012-04-26 08:37:36 51°13.726 2°55.713 17.2453 0.97544 6.505301 -2.458615
2012-04-26 08:37:42 51°13.723 2°55.712 17.2482 0.963184 6.417345 -2.458615
2012-04-26 08:37:47 51°13.72 2°55.711 17.2908 0.963184 6.417345 -2.458615
2012-04-26 08:37:51 51°13.718 2°55.711 17.2965 0.958858 6.386327 -2.458615
2012-04-26 08:37:56 51°13.715 2°55.711 17.2968 0.954223 6.35286 -2.458615
2012-04-26 08:38:01 51°13.714 2°55.711 17.3062 0.96442 6.425959 -2.458615
2012-04-26 08:38:07 51°13.714 2°55.71 17.3095 0.955047 6.358764 -2.458615
2012-04-26 08:38:11 51°13.715 2°55.71 17.3214 0.947837 6.307118 -2.458615
2012-04-26 08:38:16 51°13.716 2°55.709 17.3187 0.947837 6.307118 -2.458615
2012-04-26 08:38:22 51°13.72 2°55.706 17.3191 0.937126 6.23021 -2.458615
2012-04-26 08:38:27 51°13.724 2°55.704 17.32 0.928681 6.169704 -2.458615
2012-04-26 08:38:31 51°13.728 2°55.701 17.3196 0.937023 6.22923 -2.458615
2012-04-26 08:38:36 51°13.734 2°55.697 17.3183 0.914263 6.06637 -2.458615
2012-04-26 08:38:41 51°13.74 2°55.692 17.31 0.926518 6.153646 -2.458615
2012-04-26 08:38:47 51°13.749 2°55.686 17.3006 0.926518 6.153646 -2.458615
2012-04-26 08:38:51 51°13.756 2°55.681 17.2379 0.916734 6.083655 -2.458615
2012-04-26 08:38:56 51°13.765 2°55.675 17.1978 0.922914 6.127657 -2.458615
2012-04-26 08:39:02 51°13.776 2°55.666 17.175 0.917867 6.091623 -2.458615
2012-04-26 08:39:06 51°13.784 2°55.661 17.1727 0.911791 6.04826 -2.458615
2012-04-26 08:39:11 51°13.794 2°55.654 17.0948 0.935581 6.218189 -2.458615
2012-04-26 08:39:17 51°13.806 2°55.646 17.0706 0.935581 6.218189 -2.458615
2012-04-26 08:39:22 51°13.817 2°55.639 17.1295 0.948352 6.310066 -2.458615
2012-04-26 08:39:27 51°13.828 2°55.632 17.1384 0.93589 6.221006 -2.458615
2012-04-26 08:39:31 51°13.837 2°55.626 17.1399 0.924458 6.13917 -2.458615
2012-04-26 08:39:36 51°13.848 2°55.618 17.1273 0.941864 6.263619 -2.458615
2012-04-26 08:39:42 51°13.863 2°55.609 17.1607 0.922502 6.125073 -2.458615
2012-04-26 08:39:47 51°13.874 2°55.601 17.1594 0.922502 6.125073 -2.458615
2012-04-26 08:39:51 51°13.884 2°55.594 17.1569 0.928475 6.167629 -2.458615
2012-04-26 08:39:56 51°13.896 2°55.586 17.1699 0.929093 6.172045 -2.458615
2012-04-26 08:40:02 51°13.91 2°55.576 17.1843 0.925385 6.145552 -2.458615
2012-04-26 08:40:07 51°13.923 2°55.568 17.1866 0.927445 6.160149 -2.458615
2012-04-26 08:40:11 51°13.932 2°55.561 17.1637 0.915807 6.077039 -2.458615
2012-04-26 08:40:16 51°13.944 2°55.552 17.1392 0.915807 6.077039 -2.458615
2012-04-26 08:40:22 51°13.958 2°55.542 17.1769 0.939392 6.245566 -2.458615
2012-04-26 08:40:27 51°13.97 2°55.533 17.1777 0.926312 6.152054 -2.458615
2012-04-26 08:40:31 51°13.98 2°55.527 17.1971 0.941452 6.260304 -2.458615
2012-04-26 08:40:36 51°13.992 2°55.518 17.1653 0.929608 6.175605 -2.458615
2012-04-26 08:40:41 51°14.004 2°55.509 17.1511 0.946601 6.29716 -2.458615
2012-04-26 08:40:47 51°14.019 2°55.499 17.1722 0.946601 6.29716 -2.458615
2012-04-26 08:40:51 51°14.028 2°55.492 17.17 0.9328 6.198427 -2.458615
2012-04-26 08:40:56 51°14.04 2°55.483 17.1724 0.947219 6.301585 -2.458615
2012-04-26 08:41:01 51°14.052 2°55.474 17.1661 0.926621 6.154262 -2.458615
2012-04-26 08:41:06 51°14.064 2°55.464 17.1522 0.9328 6.198185 -2.458615
2012-04-26 08:41:11 51°14.077 2°55.454 17.1602 0.934242 6.208494 -2.458615
2012-04-26 08:41:16 51°14.089 2°55.445 17.1607 0.934242 6.208494 -2.458615
2012-04-26 08:41:21 51°14.101 2°55.435 17.1865 0.94104 6.257112 -2.458615
2012-04-26 08:41:26 51°14.114 2°55.425 17.2055 0.933315 6.201866 -2.458615
2012-04-26 08:41:31 51°14.126 2°55.415 17.2048 0.936817 6.226906 -2.458615
2012-04-26 08:41:36 51°14.138 2°55.405 17.1987 0.919927 6.105971 -2.458615
2012-04-26 08:41:42 51°14.153 2°55.392 17.1716 0.947425 6.30269 -2.458615
2012-04-26 08:41:46 51°14.163 2°55.384 17.177 0.947425 6.30269 -2.458615
2012-04-26 08:41:51 51°14.176 2°55.373 17.1436 0.926415 6.15243 -2.458615
2012-04-26 08:41:56 51°14.188 2°55.362 17.1818 0.948661 6.311415 -2.458615
2012-04-26 08:42:02 51°14.204 2°55.349 17.1776 0.957004 6.371419 -2.458615
2012-04-26 08:42:07 51°14.216 2°55.338 17.1977 0.920854 6.112469 -2.458615
2012-04-26 08:42:12 51°14.229 2°55.327 17.1812 0.968436 6.453136 -2.458615
2012-04-26 08:42:16 51°14.24 2°55.318 17.2557 0.968436 6.453136 -2.458615
2012-04-26 08:42:22 51°14.255 2°55.304 17.2299 0.920133 6.107441 -2.458615
2012-04-26 08:42:27 51°14.267 2°55.292 17.1724 0.909525 6.031156 -2.458615
2012-04-26 08:42:32 51°14.28 2°55.28 17.2392 0.939392 6.244713 -2.458615
2012-04-26 08:42:36 51°14.29 2°55.27 17.2068 0.915807 6.07609 -2.458615
2012-04-26 08:42:42 51°14.306 2°55.256 17.1834 0.907671 6.018054 -2.458615
2012-04-26 08:42:47 51°14.319 2°55.243 17.1548 0.907671 6.018054 -2.458615
2012-04-26 08:42:52 51°14.333 2°55.231 17.1023 0.934551 6.209854 -2.458615
2012-04-26 08:42:56 51°14.343 2°55.22 17.1515 0.938671 6.239556 -2.458615
2012-04-26 08:43:01 51°14.357 2°55.208 17.1705 0.915395 6.073269 -2.458615
2012-04-26 08:43:07 51°14.373 2°55.192 17.0471 0.953193 6.343249 -2.458615
2012-04-26 08:43:12 51°14.387 2°55.18 17.2193 0.926312 6.151454 -2.458615
2012-04-26 08:43:16 51°14.398 2°55.17 17.0427 0.926312 6.151454 -2.458615
2012-04-26 08:43:21 51°14.412 2°55.157 17.1226 0.916734 6.082467 -2.458615
2012-04-26 08:43:27 51°14.429 2°55.143 17.1185 0.960094 6.39294 -2.458615
2012-04-26 08:43:32 51°14.443 2°55.13 17.1984 0.910967 6.041675 -2.458615
2012-04-26 08:43:36 51°14.454 2°55.12 17.0779 0.936508 6.223845 -2.458615
2012-04-26 08:43:41 51°14.468 2°55.107 17.1556 0.90623 6.007423 -2.458615
2012-04-26 08:43:47 51°14.485 2°55.092 17.1624 0.90623 6.007423 -2.458615
2012-04-26 08:43:52 51°14.499 2°55.08 17.2207 0.969157 6.457804 -2.458615
2012-04-26 08:43:56 51°14.51 2°55.069 17.212 0.895622 5.931959 -2.458615
2012-04-26 08:44:01 51°14.523 2°55.055 17.1913 0.862154 5.693356 -2.458615
2012-04-26 08:44:06 51°14.537 2°55.04 17.1696 0.903552 5.987635 -2.458615
2012-04-26 08:44:11 51°14.55 2°55.025 17.1585 0.897167 5.942033 -2.458615
2012-04-26 08:44:16 51°14.563 2°55.009 17.1743 0.897167 5.942033 -2.458615
2012-04-26 08:44:20 51°14.573 2°54.996 17.0985 0.89037 5.893531 -2.458615
2012-04-26 08:44:25 51°14.586 2°54.98 17.1533 0.922811 6.125007 -2.458615
2012-04-26 08:44:30 51°14.599 2°54.963 17.1321 0.896446 5.9369 -2.458615
2012-04-26 08:44:35 51°14.611 2°54.946 17.1745 0.875026 5.784422 -2.458615
2012-04-26 08:44:40 51°14.624 2°54.928 17.179 0.9052 5.99891 -2.458615
2012-04-26 08:44:44 51°14.633 2°54.914 17.192 0.9052 5.99891 -2.458615
2012-04-26 08:44:49 51°14.645 2°54.895 17.1238 0.851754 5.618934 -2.458615
2012-04-26 08:44:54 51°14.656 2°54.875 17.1709 0.897476 5.943885 -2.458615
2012-04-26 08:44:59 51°14.666 2°54.854 17.1599 0.805109 5.289154 -2.458615
2012-04-26 08:45:04 51°14.675 2°54.831 16.9291 0.854946 5.641784 -2.458615
2012-04-26 08:45:09 51°14.684 2°54.808 17.0942 0.702361 4.56808 -2.458615
2012-04-26 08:45:14 51°14.691 2°54.784 17.5071 0.702361 4.56808 -2.458615
2012-04-26 08:45:19 51°14.698 2°54.759 17.2781 0.782148 5.12644 -2.458615
2012-04-26 08:45:24 51°14.703 2°54.734 16.8202 0.875438 5.786445 -2.458615
2012-04-26 08:45:28 51°14.706 2°54.713 16.7974 0.848356 5.594418 -2.458615
2012-04-26 08:45:33 51°14.708 2°54.686 16.8213 0.784928 5.146295 -2.458615
2012-04-26 08:45:38 51°14.709 2°54.66 16.8676 0.715023 4.656098 -2.458615
2012-04-26 08:45:43 51°14.708 2°54.633 16.8904 0.715023 4.656098 -2.458615
2012-04-26 08:45:48 51°14.705 2°54.607 16.9085 0.742202 4.846145 -2.458615
2012-04-26 08:45:52 51°14.703 2°54.586 16.897 0.804388 5.283351 -2.458615
2012-04-26 08:45:58 51°14.697 2°54.555 16.9404 0.662523 4.291372 -2.458615
2012-04-26 08:46:03 51°14.69 2°54.531 16.9385 0.87307 5.76962 -2.458615
2012-04-26 08:46:08 51°14.683 2°54.507 16.9724 0.764851 5.005403 -2.458615
2012-04-26 08:46:13 51°14.675 2°54.483 16.9829 0.764851 5.005403 -2.458615
2012-04-26 08:46:18 51°14.665 2°54.461 17.028 0.778339 5.100252 -2.458615
2012-04-26 08:46:23 51°14.655 2°54.439 17.0474 0.875438 5.786671 -2.458615
2012-04-26 08:46:28 51°14.645 2°54.417 17.0386 0.892842 5.910315 -2.458615
2012-04-26 08:46:32 51°14.637 2°54.399 17.078 0.899021 5.954306 -2.458615
2012-04-26 08:46:38 51°14.624 2°54.373 17.0456 0.86442 5.708209 -2.458615
2012-04-26 08:46:43 51°14.613 2°54.351 17.0717 0.86442 5.708209 -2.458615
2012-04-26 08:46:48 51°14.602 2°54.33 17.0842 0.915601 6.072605 -2.458615
2012-04-26 08:46:53 51°14.591 2°54.309 17.135 0.865861 5.717771 -2.458615
2012-04-26 08:46:58 51°14.58 2°54.287 17.1169 0.911276 6.039751 -2.458615
2012-04-26 08:47:03 51°14.568 2°54.266 17.1216 0.910555 6.033201 -2.458615
2012-04-26 08:47:08 51°14.557 2°54.244 17.1072 0.896446 5.931343 -2.458615
2012-04-26 08:47:13 51°14.546 2°54.223 17.1074 0.896446 5.931343 -2.458615
2012-04-26 08:47:18 51°14.535 2°54.201 17.0863 0.847841 5.58652 -2.458615
2012-04-26 08:47:23 51°14.524 2°54.18 17.0543 0.879351 5.811078 -2.458615
2012-04-26 08:47:28 51°14.513 2°54.158 17.0411 0.88553 5.856124 -2.458615
2012-04-26 08:47:33 51°14.502 2°54.137 17.0649 0.868539 5.73655 -2.458615
2012-04-26 08:47:38 51°14.491 2°54.116 17.0391 0.908083 6.018759 -2.458615
2012-04-26 08:47:43 51°14.48 2°54.094 17.0522 0.908083 6.018759 -2.458615
2012-04-26 08:47:48 51°14.469 2°54.073 17.0524 0.841045 5.542642 -2.458615
2012-04-26 08:47:52 51°14.459 2°54.057 17.0723 0.918382 6.092563 -2.458615
2012-04-26 08:47:58 51°14.445 2°54.032 17.0897 0.862154 5.692801 -2.458615
2012-04-26 08:48:03 51°14.433 2°54.012 17.0722 0.883471 5.844561 -2.458615
2012-04-26 08:48:08 51°14.421 2°53.992 17.0706 0.904891 5.996474 -2.458615
2012-04-26 08:48:13 51°14.409 2°53.973 17.0614 0.904891 5.996474 -2.458615
2012-04-26 08:48:18 51°14.397 2°53.953 17.109 0.856799 5.653603 -2.458615
2012-04-26 08:48:23 51°14.384 2°53.934 17.0973 0.836411 5.508881 -2.458615
2012-04-26 08:48:28 51°14.373 2°53.914 17.1494 0.91488 6.066042 -2.458615
2012-04-26 08:48:33 51°14.361 2°53.894 17.1048 0.789973 5.181395 -2.458615
2012-04-26 08:48:38 51°14.349 2°53.874 17.137 0.902831 5.980864 -2.458615
2012-04-26 08:48:43 51°14.337 2°53.853 17.1447 0.902831 5.980864 -2.458615
2012-04-26 08:48:48 51°14.326 2°53.832 17.065 0.894387 5.921079 -2.458615
2012-04-26 08:48:53 51°14.314 2°53.812 17.0868 0.838161 5.521589 -2.458615
2012-04-26 08:48:58 51°14.302 2°53.793 17.0859 0.829615 5.460502 -2.458615
2012-04-26 08:49:03 51°14.29 2°53.773 17.1209 0.908186 6.018084 -2.458615
2012-04-26 08:49:08 51°14.278 2°53.753 17.0692 0.740245 4.832077 -2.458615
2012-04-26 08:49:12 51°14.268 2°53.737 17.1574 0.740245 4.832077 -2.458615
2012-04-26 08:49:18 51°14.254 2°53.714 17.1136 0.86998 5.746896 -2.458615
2012-04-26 08:49:23 51°14.242 2°53.694 17.1602 0.918897 6.095286 -2.458615
2012-04-26 08:49:28 51°14.231 2°53.673 17.1008 0.715744 4.661581 -2.458615
2012-04-26 08:49:33 51°14.22 2°53.652 17.1651 0.907157 6.012153 -2.458615
2012-04-26 08:49:38 51°14.208 2°53.631 17.1131 0.765778 5.012103 -2.458615
2012-04-26 08:49:43 51°14.198 2°53.61 17.1612 0.765778 5.012103 -2.458615
2012-04-26 08:49:48 51°14.186 2°53.588 17.1037 0.890473 5.893459 -2.458615
2012-04-26 08:49:52 51°14.178 2°53.571 17.1146 0.870392 5.750494 -2.458615
2012-04-26 08:49:58 51°14.165 2°53.545 17.1218 0.878013 5.804511 -2.458615
2012-04-26 08:50:03 51°14.154 2°53.523 17.1432 0.862051 5.690848 -2.458615
2012-04-26 08:50:08 51°14.143 2°53.501 17.1313 0.87101 5.754432 -2.458615
2012-04-26 08:50:12 51°14.134 2°53.484 17.163 0.87101 5.754432 -2.458615
2012-04-26 08:50:18 51°14.121 2°53.457 17.1397 0.764542 5.002747 -2.458615
2012-04-26 08:50:23 51°14.11 2°53.435 17.1641 0.839294 5.530359 -2.458615
2012-04-26 08:50:28 51°14.1 2°53.412 17.1445 0.883368 5.843031 -2.458615
2012-04-26 08:50:33 51°14.09 2°53.39 17.1447 0.867406 5.729069 -2.458615
2012-04-26 08:50:38 51°14.079 2°53.367 17.1195 0.830644 5.468421 -2.458615
2012-04-26 08:50:43 51°14.069 2°53.344 17.1401 0.830644 5.468421 -2.458615
2012-04-26 08:50:48 51°14.059 2°53.321 17.1327 0.87585 5.78892 -2.458615
2012-04-26 08:50:53 51°14.049 2°53.298 17.1166 0.792238 5.197645 -2.458615
2012-04-26 08:50:58 51°14.04 2°53.275 17.1183 0.752703 4.919512 -2.458615
2012-04-26 08:51:03 51°14.03 2°53.251 17.1208 0.835999 5.506075 -2.458615
2012-04-26 08:51:08 51°14.021 2°53.227 17.1124 0.784928 5.145593 -2.458615
2012-04-26 08:51:13 51°14.011 2°53.204 17.147 0.784928 5.145593 -2.458615
2012-04-26 08:51:18 51°14.002 2°53.181 17.1418 0.860198 5.67759 -2.458615
2012-04-26 08:51:23 51°13.992 2°53.157 17.1287 0.83291 5.484332 -2.458615
2012-04-26 08:51:28 51°13.983 2°53.133 17.1335 0.862566 5.694834 -2.458615
2012-04-26 08:51:33 51°13.974 2°53.108 17.1364 0.865243 5.714278 -2.458615
2012-04-26 08:51:38 51°13.966 2°53.083 17.1236 0.843104 5.557331 -2.458615
2012-04-26 08:51:43 51°13.957 2°53.059 17.137 0.843104 5.557331 -2.458615
2012-04-26 08:51:48 51°13.948 2°53.034 17.131 0.902007 5.975928 -2.458615
2012-04-26 08:51:52 51°13.941 2°53.015 17.162 0.71667 4.667956 -2.458615
2012-04-26 08:51:58 51°13.93 2°52.986 17.1318 0.885427 5.85722 -2.458615
2012-04-26 08:52:03 51°13.921 2°52.961 17.135 0.869054 5.740541 -2.458615
2012-04-26 08:52:08 51°13.913 2°52.937 17.1529 0.854019 5.633674 -2.458615
2012-04-26 08:52:13 51°13.904 2°52.912 17.1339 0.854019 5.633674 -2.458615
2012-04-26 08:52:18 51°13.895 2°52.887 17.1312 0.867921 5.732724 -2.458615
2012-04-26 08:52:23 51°13.886 2°52.863 17.1265 0.830747 5.469469 -2.458615
2012-04-26 08:52:28 51°13.877 2°52.839 17.1451 0.805932 5.293931 -2.458615
2012-04-26 08:52:33 51°13.868 2°52.815 17.1432 0.866685 5.724064 -2.458615
2012-04-26 08:52:38 51°13.859 2°52.79 17.1307 0.862051 5.691515 -2.458615
2012-04-26 08:52:43 51°13.85 2°52.766 17.132 0.862051 5.691515 -2.458615
2012-04-26 08:52:48 51°13.841 2°52.742 17.1399 0.759807 4.969806 -2.458615
2012-04-26 08:52:53 51°13.831 2°52.718 17.1463 0.879763 5.816953 -2.458615
2012-04-26 08:52:58 51°13.822 2°52.694 17.149 0.851445 5.615978 -2.458615
2012-04-26 08:53:03 51°13.813 2°52.67 17.1655 0.863699 5.70276 -2.458615
2012-04-26 08:53:08 51°13.803 2°52.646 17.1727 0.868024 5.734014 -2.458615
2012-04-26 08:53:13 51°13.794 2°52.622 17.1462 0.868024 5.734014 -2.458615
2012-04-26 08:53:18 51°13.785 2°52.598 17.15 0.824569 5.426645 -2.458615
2012-04-26 08:53:23 51°13.775 2°52.574 17.1454 0.848664 5.597043 -2.458615
2012-04-26 08:53:28 51°13.766 2°52.55 17.1428 0.816847 5.371881 -2.458615
2012-04-26 08:53:32 51°13.758 2°52.532 17.1446 0.792444 5.1995 -2.458615
2012-04-26 08:53:38 51°13.746 2°52.503 17.1531 0.870907 5.753926 -2.458615
2012-04-26 08:53:43 51°13.736 2°52.48 17.1571 0.870907 5.753926 -2.458615
2012-04-26 08:53:48 51°13.726 2°52.457 17.1727 0.795533 5.220542 -2.458615
2012-04-26 08:53:52 51°13.718 2°52.439 17.1635 0.832601 5.481506 -2.458615
2012-04-26 08:53:58 51°13.706 2°52.411 17.1985 0.851857 5.617911 -2.458615
2012-04-26 08:54:03 51°13.696 2°52.387 17.1785 0.884809 5.852141 -2.458615
2012-04-26 08:54:08 51°13.687 2°52.363 17.1614 0.894695 5.923394 -2.458615
2012-04-26 08:54:13 51°13.677 2°52.34 17.1602 0.894695 5.923394 -2.458615
2012-04-26 08:54:18 51°13.668 2°52.316 17.1744 0.852783 5.626343 -2.458615
2012-04-26 08:54:23 51°13.658 2°52.292 17.1562 0.873482 5.773447 -2.458615
2012-04-26 08:54:28 51°13.649 2°52.268 17.1579 0.857005 5.656829 -2.458615
2012-04-26 08:54:33 51°13.64 2°52.244 17.1686 0.857417 5.659419 -2.458615
2012-04-26 08:54:38 51°13.63 2°52.22 17.1618 0.857932 5.662739 -2.458615
2012-04-26 08:54:43 51°13.62 2°52.196 17.169 0.857932 5.662739 -2.458615
2012-04-26 08:54:48 51°13.611 2°52.172 17.1707 0.803255 5.276086 -2.458615
2012-04-26 08:54:52 51°13.604 2°52.153 17.1649 0.837852 5.52048 -2.458615
2012-04-26 08:54:58 51°13.592 2°52.124 17.1654 0.875232 5.785659 -2.458615
2012-04-26 08:55:03 51°13.583 2°52.101 17.1606 0.719244 4.687019 -2.458615
2012-04-26 08:55:08 51°13.573 2°52.077 17.1708 0.807889 5.308556 -2.458615
2012-04-26 08:55:12 51°13.565 2°52.059 17.169 0.807889 5.308556 -2.458615
2012-04-26 08:55:18 51°13.554 2°52.031 17.1806 0.793371 5.205315 -2.458615
2012-04-26 08:55:23 51°13.544 2°52.007 17.1782 0.85649 5.650862 -2.458615
2012-04-26 08:55:28 51°13.535 2°51.983 17.1634 0.881308 5.827137 -2.458615
2012-04-26 08:55:33 51°13.526 2°51.959 17.1657 0.85268 5.623967 -2.458615
2012-04-26 08:55:38 51°13.516 2°51.936 17.1675 0.738495 4.819924 -2.458615
2012-04-26 08:55:43 51°13.507 2°51.912 17.1797 0.738495 4.819924 -2.458615
2012-04-26 08:55:48 51°13.497 2°51.889 17.1673 0.841868 5.547716 -2.458615
2012-04-26 08:55:52 51°13.489 2°51.87 17.1784 0.797695 5.236283 -2.458615
2012-04-26 08:55:58 51°13.478 2°51.842 17.1715 0.873585 5.773954 -2.458615
2012-04-26 08:56:03 51°13.468 2°51.819 17.1739 0.845369 5.573917 -2.458615
2012-04-26 08:56:08 51°13.459 2°51.796 17.1735 0.811493 5.33419 -2.458615
2012-04-26 08:56:12 51°13.451 2°51.777 17.176 0.811493 5.33419 -2.458615
2012-04-26 08:56:18 51°13.439 2°51.749 17.1726 0.769587 5.038951 -2.458615
2012-04-26 08:56:23 51°13.43 2°51.726 17.1735 0.761145 4.979876 -2.458615
2012-04-26 08:56:28 51°13.42 2°51.702 17.176 0.806138 5.296933 -2.458615
2012-04-26 08:56:33 51°13.411 2°51.679 17.1812 0.78812 5.169157 -2.458615
2012-04-26 08:56:38 51°13.401 2°51.655 17.1841 0.7177 4.675416 -2.458615
2012-04-26 08:56:43 51°13.392 2°51.632 17.1838 0.7177 4.675416 -2.458615
2012-04-26 08:56:48 51°13.383 2°51.608 17.1815 0.7561 4.944293 -2.458615
2012-04-26 08:56:53 51°13.373 2°51.584 17.1803 0.797592 5.235864 -2.458615
2012-04-26 08:56:58 51°13.364 2°51.561 17.1909 0.754762 4.934523 -2.458615
2012-04-26 08:57:03 51°13.354 2°51.537 17.1809 0.741069 4.83869 -2.458615
2012-04-26 08:57:08 51°13.345 2°51.513 17.1988 0.701434 4.56127 -2.458615
2012-04-26 08:57:12 51°13.338 2°51.495 17.209 0.701434 4.56127 -2.458615
2012-04-26 08:57:18 51°13.327 2°51.466 17.2267 0.831571 5.475294 -2.458615
2012-04-26 08:57:23 51°13.318 2°51.441 17.2049 0.862978 5.698201 -2.458615
2012-04-26 08:57:28 51°13.31 2°51.417 17.202 0.888002 5.876448 -2.458615
2012-04-26 08:57:33 51°13.302 2°51.392 17.1885 0.81489 5.359428 -2.458615
2012-04-26 08:57:38 51°13.295 2°51.367 17.1992 0.792444 5.200413 -2.458615
2012-04-26 08:57:43 51°13.287 2°51.342 17.1972 0.792444 5.200413 -2.458615
2012-04-26 08:57:48 51°13.28 2°51.317 17.1969 0.873585 5.773503 -2.458615
2012-04-26 08:57:53 51°13.273 2°51.291 17.1998 0.854225 5.635793 -2.458615
2012-04-26 08:57:58 51°13.265 2°51.266 17.1983 0.86617 5.720298 -2.458615
2012-04-26 08:58:03 51°13.258 2°51.241 17.1971 0.846502 5.581505 -2.458615
2012-04-26 08:58:08 51°13.251 2°51.215 17.1955 0.868951 5.741714 -2.458615
2012-04-26 08:58:12 51°13.245 2°51.195 17.1986 0.868951 5.741714 -2.458615
2012-04-26 08:58:18 51°13.236 2°51.164 17.2005 0.687228 4.464485 -2.458615
2012-04-26 08:58:23 51°13.228 2°51.139 17.1998 0.811287 5.334089 -2.458615
2012-04-26 08:58:28 51°13.22 2°51.114 17.2 0.840324 5.538945 -2.458615
2012-04-26 08:58:32 51°13.215 2°51.093 17.2014 0.868848 5.741431 -2.458615
2012-04-26 08:58:38 51°13.206 2°51.063 17.2081 0.854843 5.642485 -2.458615
2012-04-26 08:58:43 51°13.198 2°51.038 17.2034 0.854843 5.642485 -2.458615
2012-04-26 08:58:48 51°13.19 2°51.012 17.2083 0.851342 5.618098 -2.458615
2012-04-26 08:58:53 51°13.182 2°50.987 17.2047 0.731598 4.774472 -2.458615
2012-04-26 08:58:58 51°13.174 2°50.961 17.2031 0.845266 5.575255 -2.458615
2012-04-26 08:59:03 51°13.167 2°50.936 17.2049 0.837955 5.523687 -2.458615
2012-04-26 08:59:08 51°13.159 2°50.911 17.2064 0.861124 5.687825 -2.458615
2012-04-26 08:59:12 51°13.152 2°50.891 17.2056 0.861124 5.687825 -2.458615
2012-04-26 08:59:18 51°13.142 2°50.861 17.2066 0.710288 4.625228 -2.458615
2012-04-26 08:59:23 51°13.133 2°50.837 17.2078 0.722641 4.710932 -2.458615
2012-04-26 08:59:28 51°13.124 2°50.813 17.2165 0.854946 5.641784 -2.458615
2012-04-26 08:59:32 51°13.116 2°50.794 17.216 0.873893 5.776486 -2.458615
2012-04-26 08:59:38 51°13.105 2°50.765 17.2171 0.847223 5.587156 -2.458615
2012-04-26 08:59:43 51°13.096 2°50.741 17.2231 0.847223 5.587156 -2.458615
2012-04-26 08:59:48 51°13.087 2°50.717 17.2188 0.867921 5.734402 -2.458615
2012-04-26 08:59:53 51°13.078 2°50.692 17.218 0.837338 5.51802 -2.458615
2012-04-26 08:59:58 51°13.069 2°50.668 17.2192 0.836926 5.515105 -2.458615
2012-04-26 09:00:03 51°13.06 2°50.644 17.2227 0.774632 5.076079 -2.458615
2012-04-26 09:00:08 51°13.052 2°50.619 17.2247 0.838985 5.531086 -2.458615
2012-04-26 09:00:13 51°13.043 2°50.594 17.2238 0.838985 5.531086 -2.458615
2012-04-26 09:00:18 51°13.034 2°50.57 17.2279 0.890576 5.89776 -2.458615
2012-04-26 09:00:23 51°13.026 2°50.545 17.2253 0.869363 5.746322 -2.458615
2012-04-26 09:00:28 51°13.018 2°50.52 17.2254 0.806756 5.303049 -2.458615
2012-04-26 09:00:33 51°13.01 2°50.495 17.2251 0.872349 5.767089 -2.458615
2012-04-26 09:00:38 51°13.001 2°50.47 17.2214 0.778545 5.103291 -2.458615
2012-04-26 09:00:43 51°12.993 2°50.446 17.224 0.778545 5.103291 -2.458615
2012-04-26 09:00:48 51°12.984 2°50.422 17.2256 0.821274 5.40389 -2.458615
2012-04-26 09:00:53 51°12.974 2°50.399 17.2264 0.854225 5.637553 -2.458615
2012-04-26 09:00:58 51°12.965 2°50.375 17.227 0.773088 5.064729 -2.458615
2012-04-26 09:01:03 51°12.955 2°50.352 17.2286 0.795327 5.221739 -2.458615
2012-04-26 09:01:08 51°12.946 2°50.329 17.2289 0.846193 5.580841 -2.458615
2012-04-26 09:01:13 51°12.936 2°50.306 17.2306 0.846193 5.580841 -2.458615
2012-04-26 09:01:18 51°12.926 2°50.284 17.2314 0.840427 5.539674 -2.458615
2012-04-26 09:01:23 51°12.916 2°50.261 17.2319 0.837646 5.520207 -2.458615
2012-04-26 09:01:28 51°12.906 2°50.238 17.2329 0.857314 5.659572 -2.458615
2012-04-26 09:01:32 51°12.898 2°50.22 17.2335 0.853504 5.632662 -2.458615
2012-04-26 09:01:38 51°12.887 2°50.192 17.2334 0.824157 5.424899 -2.458615
2012-04-26 09:01:43 51°12.877 2°50.17 17.2345 0.824157 5.424899 -2.458615
2012-04-26 09:01:48 51°12.867 2°50.147 17.2359 0.789561 5.181325 -2.458615
2012-04-26 09:01:53 51°12.857 2°50.124 17.2368 0.8395 5.534624 -2.458615
2012-04-26 09:01:58 51°12.848 2°50.101 17.2376 0.830027 5.467785 -2.458615
2012-04-26 09:02:03 51°12.838 2°50.078 17.2398 0.78812 5.171578 -2.458615
2012-04-26 09:02:08 51°12.829 2°50.054 17.2452 0.827247 5.448119 -2.458615
2012-04-26 09:02:13 51°12.82 2°50.03 17.2432 0.827247 5.448119 -2.458615
2012-04-26 09:02:18 51°12.812 2°50.006 17.2438 0.883986 5.850964 -2.458615
2012-04-26 09:02:23 51°12.804 2°49.981 17.2465 0.829821 5.466862 -2.458615
2012-04-26 09:02:28 51°12.797 2°49.956 17.2612 0.874408 5.783644 -2.458615
2012-04-26 09:02:33 51°12.791 2°49.929 17.2842 0.769279 5.039238 -2.458615
2012-04-26 09:02:38 51°12.785 2°49.904 17.2798 0.904788 5.999605 -2.458615
2012-04-26 09:02:43 51°12.779 2°49.877 17.2789 0.904788 5.999605 -2.458615
2012-04-26 09:02:48 51°12.773 2°49.85 17.2802 0.768249 5.032691 -2.458615
2012-04-26 09:02:52 51°12.769 2°49.829 17.279 0.890782 5.900378 -2.458615
2012-04-26 09:02:58 51°12.763 2°49.796 17.2779 0.842589 5.557589 -2.458615
2012-04-26 09:03:03 51°12.758 2°49.769 17.2764 0.887796 5.879343 -2.458615
2012-04-26 09:03:08 51°12.753 2°49.742 17.2773 0.728406 4.75317 -2.458615
2012-04-26 09:03:13 51°12.748 2°49.715 17.2843 0.728406 4.75317 -2.458615
2012-04-26 09:03:18 51°12.743 2°49.688 17.2806 0.878837 5.814791 -2.458615
2012-04-26 09:03:23 51°12.737 2°49.661 17.3009 0.739113 4.828198 -2.458615
2012-04-26 09:03:28 51°12.731 2°49.634 17.2786 0.859374 5.676288 -2.458615
2012-04-26 09:03:32 51°12.727 2°49.612 17.2772 0.87585 5.793668 -2.458615
2012-04-26 09:03:38 51°12.72 2°49.579 17.2696 0.849282 5.604701 -2.458615
2012-04-26 09:03:43 51°12.714 2°49.552 17.2736 0.849282 5.604701 -2.458615
2012-04-26 09:03:48 51°12.708 2°49.525 17.2403 0.827247 5.448332 -2.458615
2012-04-26 09:03:52 51°12.703 2°49.504 17.0645 0.866479 5.726736 -2.458615
2012-04-26 09:03:58 51°12.696 2°49.472 17.1038 0.83013 5.468514 -2.458615
2012-04-26 09:04:03 51°12.69 2°49.445 17.1007 0.841559 5.549102 -2.458615
2012-04-26 09:04:08 51°12.682 2°49.419 17.1281 0.804491 5.287273 -2.458615
2012-04-26 09:04:12 51°12.676 2°49.398 17.1123 0.804491 5.287273 -2.458615
2012-04-26 09:04:18 51°12.667 2°49.367 17.1375 0.844855 5.573098 -2.458615
2012-04-26 09:04:23 51°12.66 2°49.342 17.1508 0.746937 4.882639 -2.458615
2012-04-26 09:04:28 51°12.652 2°49.316 17.1482 0.885633 5.862803 -2.458615
2012-04-26 09:04:32 51°12.645 2°49.296 17.1531 0.761557 4.985488 -2.458615
2012-04-26 09:04:38 51°12.635 2°49.266 17.1699 0.876262 5.795804 -2.458615
2012-04-26 09:04:42 51°12.628 2°49.246 17.1846 0.876262 5.795804 -2.458615
2012-04-26 09:04:48 51°12.619 2°49.215 17.1816 0.869671 5.749526 -2.458615
2012-04-26 09:04:52 51°12.613 2°49.194 17.2166 0.883059 5.844826 -2.458615
2012-04-26 09:04:58 51°12.604 2°49.163 17.2315 0.899227 5.95996 -2.458615
2012-04-26 09:05:03 51°12.597 2°49.137 17.189 0.854637 5.642676 -2.458615
2012-04-26 09:05:08 51°12.591 2°49.11 17.194 0.865758 5.721728 -2.458615
2012-04-26 09:05:12 51°12.586 2°49.089 17.1695 0.865758 5.721728 -2.458615
2012-04-26 09:05:17 51°12.58 2°49.062 17.1669 0.797798 5.24079 -2.458615
2012-04-26 09:05:23 51°12.572 2°49.03 17.1795 0.770514 5.048512 -2.458615
2012-04-26 09:05:28 51°12.566 2°49.003 17.155 0.795018 5.222313 -2.458615
2012-04-26 09:05:32 51°12.561 2°48.981 17.1746 0.800064 5.257071 -2.458615
2012-04-26 09:05:36 51°12.556 2°48.96 17.1799 0.722332 4.710703 -2.458615
2012-04-26 09:05:43 51°12.546 2°48.924 17.1704 0.722332 4.710703 -2.458615
2012-04-26 09:05:48 51°12.539 2°48.898 17.1754 0.852989 5.631099 -2.458615
2012-04-26 09:05:52 51°12.533 2°48.877 17.1775 0.758056 4.961689 -2.458615
2012-04-26 09:05:58 51°12.524 2°48.846 17.1961 0.780398 5.118623 -2.458615
2012-04-26 09:06:04 51°12.515 2°48.816 17.2041 0.790179 5.187396 -2.458615
2012-04-26 09:06:09 51°12.507 2°48.79 17.2244 0.830645 5.473332 -2.458615
2012-04-26 09:06:13 51°12.501 2°48.77 17.2141 0.830645 5.473332 -2.458615
2012-04-26 09:06:18 51°12.494 2°48.743 17.2059 0.871834 5.765569 -2.458615
2012-04-26 09:06:23 51°12.487 2°48.717 17.2025 0.87204 5.767145 -2.458615
2012-04-26 09:06:28 51°12.481 2°48.69 17.2393 0.859065 5.674538 -2.458615
2012-04-26 09:06:33 51°12.474 2°48.664 17.2061 0.878837 5.815359 -2.458615
2012-04-26 09:06:38 51°12.468 2°48.637 17.2136 0.781428 5.12657 -2.458615
2012-04-26 09:06:43 51°12.461 2°48.611 17.2171 0.781428 5.12657 -2.458615
2012-04-26 09:06:48 51°12.455 2°48.584 17.213 0.874511 5.785732 -2.458615
2012-04-26 09:06:53 51°12.449 2°48.558 17.2084 0.855667 5.651968 -2.458615
2012-04-26 09:06:58 51°12.443 2°48.531 17.2039 0.888723 5.887322 -2.458615
2012-04-26 09:07:03 51°12.437 2°48.504 17.2048 0.722435 4.712893 -2.458615
2012-04-26 09:07:08 51°12.43 2°48.478 17.2087 0.857005 5.660474 -2.458615
2012-04-26 09:07:13 51°12.423 2°48.452 17.2077 0.857005 5.660474 -2.458615
2012-04-26 09:07:18 51°12.416 2°48.427 17.2194 0.807271 5.308443 -2.458615
2012-04-26 09:07:23 51°12.408 2°48.401 17.2178 0.779883 5.1155 -2.458615
2012-04-26 09:07:28 51°12.4 2°48.376 17.2146 0.830953 5.476266 -2.458615
2012-04-26 09:07:33 51°12.392 2°48.351 17.2273 0.849179 5.605394 -2.458615
2012-04-26 09:07:38 51°12.384 2°48.325 17.2207 0.850724 5.616239 -2.458615
2012-04-26 09:07:43 51°12.376 2°48.3 17.2216 0.850724 5.616239 -2.458615
2012-04-26 09:07:48 51°12.368 2°48.276 17.2198 0.850621 5.61518 -2.458615
2012-04-26 09:07:53 51°12.359 2°48.251 17.2304 0.82354 5.422754 -2.458615
2012-04-26 09:07:58 51°12.35 2°48.227 17.228 0.84434 5.569993 -2.458615
2012-04-26 09:08:03 51°12.341 2°48.202 17.2274 0.841045 5.547187 -2.458615